<?xml version="1.0" encoding="UTF-8" standalone="no" ?>
<gpx xmlns="http://www.topografix.com/GPX/1/1" xmlns:xsi="http://www.w3.org/2001/XMLSchema-instance" xsi:schemaLocation="http://www.topografix.com/GPX/1/1 http://www.topografix.com/GPX/1/1/gpx.xsd" version="1.1" creator="VisuGPX - https://www.visugpx.com">
  <metadata>
    <name>Abbaye en Grandvaux</name>
    <desc><![CDATA[Randonnée en boucle de 9km à partir de l'Abbaye en Grandvaux]]></desc>
  </metadata>
  <trk>
    <name><![CDATA[J4 - Abbaye En Grandvaux_R1]]></name>
    <trkseg>
      <trkpt lat="46.53508" lon="5.92188">
        <ele>818.61</ele>
        <time>2021-09-21T07:28:21Z</time>
      </trkpt>
      <trkpt lat="46.53511" lon="5.92179">
        <ele>818.26</ele>
        <time>2021-09-21T07:28:35Z</time>
      </trkpt>
      <trkpt lat="46.53513" lon="5.9217">
        <ele>817.92</ele>
        <time>2021-09-21T07:28:44Z</time>
      </trkpt>
      <trkpt lat="46.53513" lon="5.92167">
        <ele>817.71</ele>
        <time>2021-09-21T07:28:46Z</time>
      </trkpt>
      <trkpt lat="46.53508" lon="5.92159">
        <ele>817.37</ele>
        <time>2021-09-21T07:28:55Z</time>
      </trkpt>
      <trkpt lat="46.53508" lon="5.92158">
        <ele>817.89</ele>
        <time>2021-09-21T07:28:56Z</time>
      </trkpt>
      <trkpt lat="46.53507" lon="5.92158">
        <ele>817.71</ele>
        <time>2021-09-21T07:28:57Z</time>
      </trkpt>
      <trkpt lat="46.53498" lon="5.92148">
        <ele>818.56</ele>
        <time>2021-09-21T07:29:09Z</time>
      </trkpt>
      <trkpt lat="46.53496" lon="5.92138">
        <ele>818.84</ele>
        <time>2021-09-21T07:29:17Z</time>
      </trkpt>
      <trkpt lat="46.53493" lon="5.92131">
        <ele>818.87</ele>
        <time>2021-09-21T07:29:27Z</time>
      </trkpt>
      <trkpt lat="46.53493" lon="5.92135">
        <ele>819.01</ele>
        <time>2021-09-21T07:29:38Z</time>
      </trkpt>
      <trkpt lat="46.53492" lon="5.92136">
        <ele>819.54</ele>
        <time>2021-09-21T07:29:54Z</time>
      </trkpt>
      <trkpt lat="46.53493" lon="5.92135">
        <ele>819.39</ele>
        <time>2021-09-21T07:30:12Z</time>
      </trkpt>
      <trkpt lat="46.53493" lon="5.92135">
        <ele>820.29</ele>
        <time>2021-09-21T07:30:16Z</time>
      </trkpt>
      <trkpt lat="46.53493" lon="5.92135">
        <ele>820.47</ele>
        <time>2021-09-21T07:30:34Z</time>
      </trkpt>
      <trkpt lat="46.535" lon="5.92135">
        <ele>820.62</ele>
        <time>2021-09-21T07:30:45Z</time>
      </trkpt>
      <trkpt lat="46.53498" lon="5.92133">
        <ele>821.29</ele>
        <time>2021-09-21T07:30:56Z</time>
      </trkpt>
      <trkpt lat="46.53495" lon="5.92132">
        <ele>821.53</ele>
        <time>2021-09-21T07:31:11Z</time>
      </trkpt>
      <trkpt lat="46.535" lon="5.92133">
        <ele>821.67</ele>
        <time>2021-09-21T07:31:23Z</time>
      </trkpt>
      <trkpt lat="46.53503" lon="5.92134">
        <ele>821.55</ele>
        <time>2021-09-21T07:31:26Z</time>
      </trkpt>
      <trkpt lat="46.53507" lon="5.92133">
        <ele>821.79</ele>
        <time>2021-09-21T07:31:36Z</time>
      </trkpt>
      <trkpt lat="46.53511" lon="5.92129">
        <ele>821.91</ele>
        <time>2021-09-21T07:31:42Z</time>
      </trkpt>
      <trkpt lat="46.53513" lon="5.92129">
        <ele>822.07</ele>
        <time>2021-09-21T07:31:44Z</time>
      </trkpt>
      <trkpt lat="46.53514" lon="5.9213">
        <ele>822.28</ele>
        <time>2021-09-21T07:31:45Z</time>
      </trkpt>
      <trkpt lat="46.53516" lon="5.9213">
        <ele>822.37</ele>
        <time>2021-09-21T07:31:46Z</time>
      </trkpt>
      <trkpt lat="46.53527" lon="5.92129">
        <ele>821.86</ele>
        <time>2021-09-21T07:31:56Z</time>
      </trkpt>
      <trkpt lat="46.53528" lon="5.92129">
        <ele>821.85</ele>
        <time>2021-09-21T07:31:57Z</time>
      </trkpt>
      <trkpt lat="46.53529" lon="5.92129">
        <ele>822.09</ele>
        <time>2021-09-21T07:31:58Z</time>
      </trkpt>
      <trkpt lat="46.53543" lon="5.9213">
        <ele>822.63</ele>
        <time>2021-09-21T07:32:09Z</time>
      </trkpt>
      <trkpt lat="46.53554" lon="5.9213">
        <ele>823.55</ele>
        <time>2021-09-21T07:32:20Z</time>
      </trkpt>
      <trkpt lat="46.53564" lon="5.92128">
        <ele>824.22</ele>
        <time>2021-09-21T07:32:31Z</time>
      </trkpt>
      <trkpt lat="46.5357" lon="5.92128">
        <ele>824.15</ele>
        <time>2021-09-21T07:32:47Z</time>
      </trkpt>
      <trkpt lat="46.53571" lon="5.92127">
        <ele>824.14</ele>
        <time>2021-09-21T07:32:48Z</time>
      </trkpt>
      <trkpt lat="46.53572" lon="5.92127">
        <ele>824.04</ele>
        <time>2021-09-21T07:32:49Z</time>
      </trkpt>
      <trkpt lat="46.53573" lon="5.92126">
        <ele>823.6</ele>
        <time>2021-09-21T07:32:50Z</time>
      </trkpt>
      <trkpt lat="46.53575" lon="5.92126">
        <ele>824.14</ele>
        <time>2021-09-21T07:32:51Z</time>
      </trkpt>
      <trkpt lat="46.53576" lon="5.92126">
        <ele>824.6</ele>
        <time>2021-09-21T07:32:52Z</time>
      </trkpt>
      <trkpt lat="46.5359" lon="5.92125">
        <ele>824.87</ele>
        <time>2021-09-21T07:33:04Z</time>
      </trkpt>
      <trkpt lat="46.53603" lon="5.92123">
        <ele>825.18</ele>
        <time>2021-09-21T07:33:14Z</time>
      </trkpt>
      <trkpt lat="46.53616" lon="5.92119">
        <ele>825.81</ele>
        <time>2021-09-21T07:33:25Z</time>
      </trkpt>
      <trkpt lat="46.53626" lon="5.92118">
        <ele>825.82</ele>
        <time>2021-09-21T07:33:36Z</time>
      </trkpt>
      <trkpt lat="46.53627" lon="5.92118">
        <ele>825.85</ele>
        <time>2021-09-21T07:33:37Z</time>
      </trkpt>
      <trkpt lat="46.53631" lon="5.92116">
        <ele>825.73</ele>
        <time>2021-09-21T07:33:40Z</time>
      </trkpt>
      <trkpt lat="46.53645" lon="5.9211">
        <ele>825.77</ele>
        <time>2021-09-21T07:33:53Z</time>
      </trkpt>
      <trkpt lat="46.53654" lon="5.92107">
        <ele>826.13</ele>
        <time>2021-09-21T07:34:03Z</time>
      </trkpt>
      <trkpt lat="46.53661" lon="5.92106">
        <ele>826.42</ele>
        <time>2021-09-21T07:34:14Z</time>
      </trkpt>
      <trkpt lat="46.53663" lon="5.92104">
        <ele>826.78</ele>
        <time>2021-09-21T07:34:26Z</time>
      </trkpt>
      <trkpt lat="46.53664" lon="5.92104">
        <ele>827.04</ele>
        <time>2021-09-21T07:34:27Z</time>
      </trkpt>
      <trkpt lat="46.53665" lon="5.92103">
        <ele>827.26</ele>
        <time>2021-09-21T07:34:28Z</time>
      </trkpt>
      <trkpt lat="46.53667" lon="5.92102">
        <ele>826.88</ele>
        <time>2021-09-21T07:34:29Z</time>
      </trkpt>
      <trkpt lat="46.53668" lon="5.92102">
        <ele>826.77</ele>
        <time>2021-09-21T07:34:30Z</time>
      </trkpt>
      <trkpt lat="46.5367" lon="5.92101">
        <ele>826.72</ele>
        <time>2021-09-21T07:34:32Z</time>
      </trkpt>
      <trkpt lat="46.53672" lon="5.92101">
        <ele>826.79</ele>
        <time>2021-09-21T07:34:33Z</time>
      </trkpt>
      <trkpt lat="46.53673" lon="5.92101">
        <ele>826.54</ele>
        <time>2021-09-21T07:34:34Z</time>
      </trkpt>
      <trkpt lat="46.53674" lon="5.92101">
        <ele>826.99</ele>
        <time>2021-09-21T07:34:35Z</time>
      </trkpt>
      <trkpt lat="46.53675" lon="5.92101">
        <ele>826.94</ele>
        <time>2021-09-21T07:34:36Z</time>
      </trkpt>
      <trkpt lat="46.53676" lon="5.92101">
        <ele>827.06</ele>
        <time>2021-09-21T07:34:37Z</time>
      </trkpt>
      <trkpt lat="46.53678" lon="5.92101">
        <ele>827.25</ele>
        <time>2021-09-21T07:34:38Z</time>
      </trkpt>
      <trkpt lat="46.53679" lon="5.92101">
        <ele>827.19</ele>
        <time>2021-09-21T07:34:39Z</time>
      </trkpt>
      <trkpt lat="46.5368" lon="5.921">
        <ele>827.1</ele>
        <time>2021-09-21T07:34:40Z</time>
      </trkpt>
      <trkpt lat="46.53685" lon="5.92098">
        <ele>827.46</ele>
        <time>2021-09-21T07:34:44Z</time>
      </trkpt>
      <trkpt lat="46.53686" lon="5.92098">
        <ele>827.32</ele>
        <time>2021-09-21T07:34:45Z</time>
      </trkpt>
      <trkpt lat="46.53687" lon="5.92097">
        <ele>827.23</ele>
        <time>2021-09-21T07:34:46Z</time>
      </trkpt>
      <trkpt lat="46.53702" lon="5.92086">
        <ele>827.75</ele>
        <time>2021-09-21T07:34:58Z</time>
      </trkpt>
      <trkpt lat="46.53713" lon="5.92076">
        <ele>827.76</ele>
        <time>2021-09-21T07:35:09Z</time>
      </trkpt>
      <trkpt lat="46.53715" lon="5.92073">
        <ele>828.05</ele>
        <time>2021-09-21T07:35:12Z</time>
      </trkpt>
      <trkpt lat="46.53718" lon="5.92071">
        <ele>827.78</ele>
        <time>2021-09-21T07:35:14Z</time>
      </trkpt>
      <trkpt lat="46.53719" lon="5.9207">
        <ele>827.78</ele>
        <time>2021-09-21T07:35:15Z</time>
      </trkpt>
      <trkpt lat="46.53732" lon="5.92057">
        <ele>828.74</ele>
        <time>2021-09-21T07:35:27Z</time>
      </trkpt>
      <trkpt lat="46.53742" lon="5.92045">
        <ele>828.93</ele>
        <time>2021-09-21T07:35:38Z</time>
      </trkpt>
      <trkpt lat="46.53748" lon="5.92041">
        <ele>829.11</ele>
        <time>2021-09-21T07:35:44Z</time>
      </trkpt>
      <trkpt lat="46.53749" lon="5.9204">
        <ele>828.78</ele>
        <time>2021-09-21T07:35:45Z</time>
      </trkpt>
      <trkpt lat="46.5375" lon="5.92039">
        <ele>828.83</ele>
        <time>2021-09-21T07:35:46Z</time>
      </trkpt>
      <trkpt lat="46.53751" lon="5.92037">
        <ele>829.02</ele>
        <time>2021-09-21T07:35:47Z</time>
      </trkpt>
      <trkpt lat="46.53759" lon="5.92025">
        <ele>830.06</ele>
        <time>2021-09-21T07:35:57Z</time>
      </trkpt>
      <trkpt lat="46.5376" lon="5.92023">
        <ele>829.78</ele>
        <time>2021-09-21T07:35:58Z</time>
      </trkpt>
      <trkpt lat="46.53761" lon="5.92022">
        <ele>830.18</ele>
        <time>2021-09-21T07:35:59Z</time>
      </trkpt>
      <trkpt lat="46.53766" lon="5.92014">
        <ele>830.62</ele>
        <time>2021-09-21T07:36:05Z</time>
      </trkpt>
      <trkpt lat="46.53767" lon="5.92013">
        <ele>830.64</ele>
        <time>2021-09-21T07:36:06Z</time>
      </trkpt>
      <trkpt lat="46.53775" lon="5.92005">
        <ele>830.56</ele>
        <time>2021-09-21T07:36:14Z</time>
      </trkpt>
      <trkpt lat="46.53776" lon="5.92003">
        <ele>830.38</ele>
        <time>2021-09-21T07:36:15Z</time>
      </trkpt>
      <trkpt lat="46.5379" lon="5.91988">
        <ele>830.8</ele>
        <time>2021-09-21T07:36:28Z</time>
      </trkpt>
      <trkpt lat="46.53802" lon="5.91972">
        <ele>830.93</ele>
        <time>2021-09-21T07:36:40Z</time>
      </trkpt>
      <trkpt lat="46.53805" lon="5.91968">
        <ele>831.02</ele>
        <time>2021-09-21T07:36:43Z</time>
      </trkpt>
      <trkpt lat="46.53807" lon="5.91963">
        <ele>831.96</ele>
        <time>2021-09-21T07:36:47Z</time>
      </trkpt>
      <trkpt lat="46.53818" lon="5.91947">
        <ele>832.64</ele>
        <time>2021-09-21T07:37:01Z</time>
      </trkpt>
      <trkpt lat="46.53827" lon="5.91942">
        <ele>833.57</ele>
        <time>2021-09-21T07:37:11Z</time>
      </trkpt>
      <trkpt lat="46.53835" lon="5.91939">
        <ele>833.32</ele>
        <time>2021-09-21T07:37:22Z</time>
      </trkpt>
      <trkpt lat="46.53828" lon="5.91934">
        <ele>833.71</ele>
        <time>2021-09-21T07:37:37Z</time>
      </trkpt>
      <trkpt lat="46.53822" lon="5.91928">
        <ele>833.52</ele>
        <time>2021-09-21T07:37:49Z</time>
      </trkpt>
      <trkpt lat="46.53822" lon="5.91928">
        <ele>833.64</ele>
        <time>2021-09-21T07:38:01Z</time>
      </trkpt>
      <trkpt lat="46.53825" lon="5.91932">
        <ele>833.94</ele>
        <time>2021-09-21T07:38:06Z</time>
      </trkpt>
      <trkpt lat="46.53835" lon="5.91942">
        <ele>834.38</ele>
        <time>2021-09-21T07:38:18Z</time>
      </trkpt>
      <trkpt lat="46.53832" lon="5.91939">
        <ele>834.33</ele>
        <time>2021-09-21T07:38:27Z</time>
      </trkpt>
      <trkpt lat="46.53823" lon="5.91923">
        <ele>834.34</ele>
        <time>2021-09-21T07:38:39Z</time>
      </trkpt>
      <trkpt lat="46.5382" lon="5.91911">
        <ele>834.38</ele>
        <time>2021-09-21T07:38:51Z</time>
      </trkpt>
      <trkpt lat="46.5382" lon="5.91909">
        <ele>834.37</ele>
        <time>2021-09-21T07:38:55Z</time>
      </trkpt>
      <trkpt lat="46.53814" lon="5.91901">
        <ele>834.27</ele>
        <time>2021-09-21T07:39:04Z</time>
      </trkpt>
      <trkpt lat="46.53804" lon="5.91896">
        <ele>834.02</ele>
        <time>2021-09-21T07:39:17Z</time>
      </trkpt>
      <trkpt lat="46.53794" lon="5.91885">
        <ele>833.51</ele>
        <time>2021-09-21T07:39:35Z</time>
      </trkpt>
      <trkpt lat="46.53788" lon="5.91871">
        <ele>833.89</ele>
        <time>2021-09-21T07:39:51Z</time>
      </trkpt>
      <trkpt lat="46.53782" lon="5.91861">
        <ele>834</ele>
        <time>2021-09-21T07:40:05Z</time>
      </trkpt>
      <trkpt lat="46.53776" lon="5.91856">
        <ele>834.36</ele>
        <time>2021-09-21T07:40:16Z</time>
      </trkpt>
      <trkpt lat="46.53772" lon="5.91853">
        <ele>834.21</ele>
        <time>2021-09-21T07:40:30Z</time>
      </trkpt>
      <trkpt lat="46.5376" lon="5.9185">
        <ele>834.44</ele>
        <time>2021-09-21T07:40:44Z</time>
      </trkpt>
      <trkpt lat="46.53755" lon="5.91848">
        <ele>834.11</ele>
        <time>2021-09-21T07:40:51Z</time>
      </trkpt>
      <trkpt lat="46.53751" lon="5.91847">
        <ele>835.08</ele>
        <time>2021-09-21T07:40:55Z</time>
      </trkpt>
      <trkpt lat="46.53737" lon="5.91842">
        <ele>834.84</ele>
        <time>2021-09-21T07:41:09Z</time>
      </trkpt>
      <trkpt lat="46.53732" lon="5.91841">
        <ele>835.19</ele>
        <time>2021-09-21T07:41:14Z</time>
      </trkpt>
      <trkpt lat="46.53726" lon="5.9184">
        <ele>834.45</ele>
        <time>2021-09-21T07:41:19Z</time>
      </trkpt>
      <trkpt lat="46.53716" lon="5.91831">
        <ele>834.65</ele>
        <time>2021-09-21T07:41:30Z</time>
      </trkpt>
      <trkpt lat="46.53714" lon="5.9183">
        <ele>834.73</ele>
        <time>2021-09-21T07:41:32Z</time>
      </trkpt>
      <trkpt lat="46.53708" lon="5.91828">
        <ele>835.86</ele>
        <time>2021-09-21T07:41:44Z</time>
      </trkpt>
      <trkpt lat="46.53705" lon="5.91827">
        <ele>835.59</ele>
        <time>2021-09-21T07:41:57Z</time>
      </trkpt>
      <trkpt lat="46.53705" lon="5.91825">
        <ele>835.14</ele>
        <time>2021-09-21T07:41:59Z</time>
      </trkpt>
      <trkpt lat="46.53703" lon="5.91818">
        <ele>836.11</ele>
        <time>2021-09-21T07:42:04Z</time>
      </trkpt>
      <trkpt lat="46.53704" lon="5.91811">
        <ele>836.3</ele>
        <time>2021-09-21T07:42:16Z</time>
      </trkpt>
      <trkpt lat="46.53708" lon="5.91812">
        <ele>836.53</ele>
        <time>2021-09-21T07:42:27Z</time>
      </trkpt>
      <trkpt lat="46.53707" lon="5.91811">
        <ele>836.75</ele>
        <time>2021-09-21T07:42:40Z</time>
      </trkpt>
      <trkpt lat="46.53708" lon="5.91811">
        <ele>836.8</ele>
        <time>2021-09-21T07:42:43Z</time>
      </trkpt>
      <trkpt lat="46.5371" lon="5.91804">
        <ele>836.89</ele>
        <time>2021-09-21T07:42:48Z</time>
      </trkpt>
      <trkpt lat="46.53713" lon="5.91793">
        <ele>837.03</ele>
        <time>2021-09-21T07:42:56Z</time>
      </trkpt>
      <trkpt lat="46.53715" lon="5.91787">
        <ele>837.61</ele>
        <time>2021-09-21T07:43:00Z</time>
      </trkpt>
      <trkpt lat="46.53716" lon="5.91783">
        <ele>836.73</ele>
        <time>2021-09-21T07:43:03Z</time>
      </trkpt>
      <trkpt lat="46.53721" lon="5.91775">
        <ele>837.67</ele>
        <time>2021-09-21T07:43:12Z</time>
      </trkpt>
      <trkpt lat="46.53723" lon="5.91771">
        <ele>837.19</ele>
        <time>2021-09-21T07:43:15Z</time>
      </trkpt>
      <trkpt lat="46.53731" lon="5.91757">
        <ele>838.03</ele>
        <time>2021-09-21T07:43:28Z</time>
      </trkpt>
      <trkpt lat="46.53742" lon="5.91745">
        <ele>838.23</ele>
        <time>2021-09-21T07:43:40Z</time>
      </trkpt>
      <trkpt lat="46.53753" lon="5.91737">
        <ele>838.51</ele>
        <time>2021-09-21T07:43:51Z</time>
      </trkpt>
      <trkpt lat="46.53766" lon="5.91731">
        <ele>839.35</ele>
        <time>2021-09-21T07:44:03Z</time>
      </trkpt>
      <trkpt lat="46.53778" lon="5.91728">
        <ele>839.53</ele>
        <time>2021-09-21T07:44:14Z</time>
      </trkpt>
      <trkpt lat="46.5379" lon="5.91725">
        <ele>840.59</ele>
        <time>2021-09-21T07:44:26Z</time>
      </trkpt>
      <trkpt lat="46.53801" lon="5.91721">
        <ele>840.89</ele>
        <time>2021-09-21T07:44:36Z</time>
      </trkpt>
      <trkpt lat="46.53814" lon="5.91715">
        <ele>841.45</ele>
        <time>2021-09-21T07:44:48Z</time>
      </trkpt>
      <trkpt lat="46.53825" lon="5.91709">
        <ele>841.97</ele>
        <time>2021-09-21T07:44:59Z</time>
      </trkpt>
      <trkpt lat="46.53838" lon="5.91705">
        <ele>842.83</ele>
        <time>2021-09-21T07:45:11Z</time>
      </trkpt>
      <trkpt lat="46.53851" lon="5.91701">
        <ele>843.55</ele>
        <time>2021-09-21T07:45:23Z</time>
      </trkpt>
      <trkpt lat="46.53862" lon="5.91696">
        <ele>843.8</ele>
        <time>2021-09-21T07:45:35Z</time>
      </trkpt>
      <trkpt lat="46.53873" lon="5.9169">
        <ele>844.3</ele>
        <time>2021-09-21T07:45:48Z</time>
      </trkpt>
      <trkpt lat="46.53875" lon="5.91688">
        <ele>844.51</ele>
        <time>2021-09-21T07:45:50Z</time>
      </trkpt>
      <trkpt lat="46.53879" lon="5.91686">
        <ele>844.72</ele>
        <time>2021-09-21T07:45:55Z</time>
      </trkpt>
      <trkpt lat="46.53892" lon="5.9168">
        <ele>844.62</ele>
        <time>2021-09-21T07:46:06Z</time>
      </trkpt>
      <trkpt lat="46.53905" lon="5.91673">
        <ele>845.28</ele>
        <time>2021-09-21T07:46:18Z</time>
      </trkpt>
      <trkpt lat="46.53907" lon="5.91672">
        <ele>845.58</ele>
        <time>2021-09-21T07:46:20Z</time>
      </trkpt>
      <trkpt lat="46.53919" lon="5.9167">
        <ele>846.21</ele>
        <time>2021-09-21T07:46:32Z</time>
      </trkpt>
      <trkpt lat="46.53931" lon="5.9167">
        <ele>846.91</ele>
        <time>2021-09-21T07:46:44Z</time>
      </trkpt>
      <trkpt lat="46.53936" lon="5.91669">
        <ele>847.24</ele>
        <time>2021-09-21T07:46:56Z</time>
      </trkpt>
      <trkpt lat="46.53947" lon="5.91669">
        <ele>847.55</ele>
        <time>2021-09-21T07:47:11Z</time>
      </trkpt>
      <trkpt lat="46.53954" lon="5.9167">
        <ele>848.07</ele>
        <time>2021-09-21T07:47:27Z</time>
      </trkpt>
      <trkpt lat="46.53965" lon="5.91667">
        <ele>848.57</ele>
        <time>2021-09-21T07:47:43Z</time>
      </trkpt>
      <trkpt lat="46.53979" lon="5.91664">
        <ele>849.51</ele>
        <time>2021-09-21T07:48:01Z</time>
      </trkpt>
      <trkpt lat="46.53983" lon="5.91664">
        <ele>849.86</ele>
        <time>2021-09-21T07:48:06Z</time>
      </trkpt>
      <trkpt lat="46.53993" lon="5.91663">
        <ele>849.16</ele>
        <time>2021-09-21T07:48:18Z</time>
      </trkpt>
      <trkpt lat="46.54005" lon="5.91658">
        <ele>849.86</ele>
        <time>2021-09-21T07:48:34Z</time>
      </trkpt>
      <trkpt lat="46.54018" lon="5.91654">
        <ele>850.88</ele>
        <time>2021-09-21T07:48:50Z</time>
      </trkpt>
      <trkpt lat="46.5402" lon="5.91653">
        <ele>851.03</ele>
        <time>2021-09-21T07:48:52Z</time>
      </trkpt>
      <trkpt lat="46.54033" lon="5.91652">
        <ele>851.38</ele>
        <time>2021-09-21T07:49:03Z</time>
      </trkpt>
      <trkpt lat="46.54048" lon="5.91651">
        <ele>851.13</ele>
        <time>2021-09-21T07:49:15Z</time>
      </trkpt>
      <trkpt lat="46.54059" lon="5.91651">
        <ele>850.75</ele>
        <time>2021-09-21T07:49:23Z</time>
      </trkpt>
      <trkpt lat="46.54075" lon="5.91652">
        <ele>850.95</ele>
        <time>2021-09-21T07:49:36Z</time>
      </trkpt>
      <trkpt lat="46.54078" lon="5.91649">
        <ele>851.07</ele>
        <time>2021-09-21T07:49:50Z</time>
      </trkpt>
      <trkpt lat="46.54075" lon="5.91653">
        <ele>851.07</ele>
        <time>2021-09-21T07:50:07Z</time>
      </trkpt>
      <trkpt lat="46.5408" lon="5.91649">
        <ele>850.72</ele>
        <time>2021-09-21T07:50:17Z</time>
      </trkpt>
      <trkpt lat="46.54081" lon="5.91645">
        <ele>851.04</ele>
        <time>2021-09-21T07:50:33Z</time>
      </trkpt>
      <trkpt lat="46.54081" lon="5.91645">
        <ele>850.72</ele>
        <time>2021-09-21T07:50:36Z</time>
      </trkpt>
      <trkpt lat="46.54084" lon="5.91642">
        <ele>851.09</ele>
        <time>2021-09-21T07:50:39Z</time>
      </trkpt>
      <trkpt lat="46.54088" lon="5.91637">
        <ele>850.71</ele>
        <time>2021-09-21T07:50:43Z</time>
      </trkpt>
      <trkpt lat="46.54096" lon="5.91619">
        <ele>850.84</ele>
        <time>2021-09-21T07:50:56Z</time>
      </trkpt>
      <trkpt lat="46.54097" lon="5.91607">
        <ele>850.98</ele>
        <time>2021-09-21T07:51:03Z</time>
      </trkpt>
      <trkpt lat="46.54096" lon="5.91602">
        <ele>851.14</ele>
        <time>2021-09-21T07:51:07Z</time>
      </trkpt>
      <trkpt lat="46.541" lon="5.91585">
        <ele>851.55</ele>
        <time>2021-09-21T07:51:19Z</time>
      </trkpt>
      <trkpt lat="46.54104" lon="5.9157">
        <ele>851.81</ele>
        <time>2021-09-21T07:51:30Z</time>
      </trkpt>
      <trkpt lat="46.54108" lon="5.91555">
        <ele>853</ele>
        <time>2021-09-21T07:51:40Z</time>
      </trkpt>
      <trkpt lat="46.54112" lon="5.91546">
        <ele>852.99</ele>
        <time>2021-09-21T07:51:47Z</time>
      </trkpt>
      <trkpt lat="46.54115" lon="5.91536">
        <ele>852.99</ele>
        <time>2021-09-21T07:51:53Z</time>
      </trkpt>
      <trkpt lat="46.54118" lon="5.91531">
        <ele>853.96</ele>
        <time>2021-09-21T07:51:58Z</time>
      </trkpt>
      <trkpt lat="46.54123" lon="5.91516">
        <ele>854.04</ele>
        <time>2021-09-21T07:52:09Z</time>
      </trkpt>
      <trkpt lat="46.5413" lon="5.91497">
        <ele>855.27</ele>
        <time>2021-09-21T07:52:23Z</time>
      </trkpt>
      <trkpt lat="46.54133" lon="5.91488">
        <ele>855.81</ele>
        <time>2021-09-21T07:52:34Z</time>
      </trkpt>
      <trkpt lat="46.54137" lon="5.91477">
        <ele>856.09</ele>
        <time>2021-09-21T07:52:45Z</time>
      </trkpt>
      <trkpt lat="46.54142" lon="5.91453">
        <ele>857.07</ele>
        <time>2021-09-21T07:52:59Z</time>
      </trkpt>
      <trkpt lat="46.54143" lon="5.91436">
        <ele>857.57</ele>
        <time>2021-09-21T07:53:09Z</time>
      </trkpt>
      <trkpt lat="46.54143" lon="5.91426">
        <ele>858.03</ele>
        <time>2021-09-21T07:53:15Z</time>
      </trkpt>
      <trkpt lat="46.54142" lon="5.91413">
        <ele>858.91</ele>
        <time>2021-09-21T07:53:23Z</time>
      </trkpt>
      <trkpt lat="46.54141" lon="5.914">
        <ele>859.25</ele>
        <time>2021-09-21T07:53:31Z</time>
      </trkpt>
      <trkpt lat="46.5414" lon="5.91394">
        <ele>859.86</ele>
        <time>2021-09-21T07:53:35Z</time>
      </trkpt>
      <trkpt lat="46.54139" lon="5.91386">
        <ele>860.45</ele>
        <time>2021-09-21T07:53:40Z</time>
      </trkpt>
      <trkpt lat="46.54133" lon="5.91373">
        <ele>861.43</ele>
        <time>2021-09-21T07:53:51Z</time>
      </trkpt>
      <trkpt lat="46.54126" lon="5.91361">
        <ele>861.54</ele>
        <time>2021-09-21T07:54:03Z</time>
      </trkpt>
      <trkpt lat="46.5412" lon="5.91349">
        <ele>862.41</ele>
        <time>2021-09-21T07:54:14Z</time>
      </trkpt>
      <trkpt lat="46.5411" lon="5.91331">
        <ele>863.17</ele>
        <time>2021-09-21T07:54:28Z</time>
      </trkpt>
      <trkpt lat="46.54107" lon="5.91325">
        <ele>862.77</ele>
        <time>2021-09-21T07:54:32Z</time>
      </trkpt>
      <trkpt lat="46.54098" lon="5.91309">
        <ele>863.15</ele>
        <time>2021-09-21T07:54:43Z</time>
      </trkpt>
      <trkpt lat="46.54097" lon="5.91306">
        <ele>862.82</ele>
        <time>2021-09-21T07:54:46Z</time>
      </trkpt>
      <trkpt lat="46.54091" lon="5.91298">
        <ele>863.26</ele>
        <time>2021-09-21T07:54:54Z</time>
      </trkpt>
      <trkpt lat="46.54086" lon="5.91293">
        <ele>863.72</ele>
        <time>2021-09-21T07:55:00Z</time>
      </trkpt>
      <trkpt lat="46.54077" lon="5.91285">
        <ele>863.87</ele>
        <time>2021-09-21T07:55:11Z</time>
      </trkpt>
      <trkpt lat="46.54073" lon="5.91282">
        <ele>863.56</ele>
        <time>2021-09-21T07:55:15Z</time>
      </trkpt>
      <trkpt lat="46.54063" lon="5.91265">
        <ele>863.49</ele>
        <time>2021-09-21T07:55:28Z</time>
      </trkpt>
      <trkpt lat="46.54055" lon="5.91251">
        <ele>864.09</ele>
        <time>2021-09-21T07:55:41Z</time>
      </trkpt>
      <trkpt lat="46.54047" lon="5.91241">
        <ele>864.57</ele>
        <time>2021-09-21T07:55:55Z</time>
      </trkpt>
      <trkpt lat="46.54043" lon="5.91233">
        <ele>864.92</ele>
        <time>2021-09-21T07:56:03Z</time>
      </trkpt>
      <trkpt lat="46.54039" lon="5.91228">
        <ele>865.28</ele>
        <time>2021-09-21T07:56:08Z</time>
      </trkpt>
      <trkpt lat="46.54029" lon="5.91213">
        <ele>865.34</ele>
        <time>2021-09-21T07:56:22Z</time>
      </trkpt>
      <trkpt lat="46.54021" lon="5.91196">
        <ele>865.68</ele>
        <time>2021-09-21T07:56:36Z</time>
      </trkpt>
      <trkpt lat="46.54015" lon="5.91183">
        <ele>864.83</ele>
        <time>2021-09-21T07:56:46Z</time>
      </trkpt>
      <trkpt lat="46.54006" lon="5.91166">
        <ele>865.06</ele>
        <time>2021-09-21T07:56:59Z</time>
      </trkpt>
      <trkpt lat="46.54001" lon="5.91154">
        <ele>865.13</ele>
        <time>2021-09-21T07:57:10Z</time>
      </trkpt>
      <trkpt lat="46.53992" lon="5.91137">
        <ele>864.45</ele>
        <time>2021-09-21T07:57:22Z</time>
      </trkpt>
      <trkpt lat="46.53991" lon="5.91133">
        <ele>865.11</ele>
        <time>2021-09-21T07:57:24Z</time>
      </trkpt>
      <trkpt lat="46.53989" lon="5.91125">
        <ele>864.47</ele>
        <time>2021-09-21T07:57:29Z</time>
      </trkpt>
      <trkpt lat="46.53983" lon="5.91104">
        <ele>864.75</ele>
        <time>2021-09-21T07:57:41Z</time>
      </trkpt>
      <trkpt lat="46.53982" lon="5.91087">
        <ele>865.23</ele>
        <time>2021-09-21T07:57:51Z</time>
      </trkpt>
      <trkpt lat="46.53981" lon="5.91079">
        <ele>865.05</ele>
        <time>2021-09-21T07:57:56Z</time>
      </trkpt>
      <trkpt lat="46.53982" lon="5.9106">
        <ele>865.62</ele>
        <time>2021-09-21T07:58:09Z</time>
      </trkpt>
      <trkpt lat="46.53986" lon="5.91043">
        <ele>865.4</ele>
        <time>2021-09-21T07:58:21Z</time>
      </trkpt>
      <trkpt lat="46.53988" lon="5.91022">
        <ele>865.18</ele>
        <time>2021-09-21T07:58:33Z</time>
      </trkpt>
      <trkpt lat="46.5399" lon="5.91003">
        <ele>865.06</ele>
        <time>2021-09-21T07:58:44Z</time>
      </trkpt>
      <trkpt lat="46.53989" lon="5.90994">
        <ele>865.24</ele>
        <time>2021-09-21T07:58:49Z</time>
      </trkpt>
      <trkpt lat="46.53984" lon="5.90985">
        <ele>865.85</ele>
        <time>2021-09-21T07:58:56Z</time>
      </trkpt>
      <trkpt lat="46.53979" lon="5.9098">
        <ele>866.65</ele>
        <time>2021-09-21T07:59:10Z</time>
      </trkpt>
      <trkpt lat="46.53975" lon="5.90977">
        <ele>867.59</ele>
        <time>2021-09-21T07:59:27Z</time>
      </trkpt>
      <trkpt lat="46.53973" lon="5.90979">
        <ele>868.05</ele>
        <time>2021-09-21T07:59:43Z</time>
      </trkpt>
      <trkpt lat="46.53969" lon="5.90976">
        <ele>868.95</ele>
        <time>2021-09-21T07:59:52Z</time>
      </trkpt>
      <trkpt lat="46.53958" lon="5.90976">
        <ele>869.52</ele>
        <time>2021-09-21T08:00:03Z</time>
      </trkpt>
      <trkpt lat="46.53955" lon="5.90977">
        <ele>870.01</ele>
        <time>2021-09-21T08:00:07Z</time>
      </trkpt>
      <trkpt lat="46.53952" lon="5.90978">
        <ele>869.6</ele>
        <time>2021-09-21T08:00:09Z</time>
      </trkpt>
      <trkpt lat="46.53942" lon="5.90976">
        <ele>870.58</ele>
        <time>2021-09-21T08:00:22Z</time>
      </trkpt>
      <trkpt lat="46.5393" lon="5.90971">
        <ele>871.31</ele>
        <time>2021-09-21T08:00:34Z</time>
      </trkpt>
      <trkpt lat="46.53919" lon="5.90963">
        <ele>872.97</ele>
        <time>2021-09-21T08:00:47Z</time>
      </trkpt>
      <trkpt lat="46.53912" lon="5.90955">
        <ele>874.13</ele>
        <time>2021-09-21T08:00:59Z</time>
      </trkpt>
      <trkpt lat="46.53905" lon="5.90946">
        <ele>875.22</ele>
        <time>2021-09-21T08:01:11Z</time>
      </trkpt>
      <trkpt lat="46.53896" lon="5.90935">
        <ele>876.09</ele>
        <time>2021-09-21T08:01:26Z</time>
      </trkpt>
      <trkpt lat="46.53887" lon="5.90926">
        <ele>876.75</ele>
        <time>2021-09-21T08:01:38Z</time>
      </trkpt>
      <trkpt lat="46.53884" lon="5.9092">
        <ele>877.37</ele>
        <time>2021-09-21T08:01:43Z</time>
      </trkpt>
      <trkpt lat="46.53879" lon="5.90907">
        <ele>876.89</ele>
        <time>2021-09-21T08:01:54Z</time>
      </trkpt>
      <trkpt lat="46.53878" lon="5.90903">
        <ele>877.39</ele>
        <time>2021-09-21T08:02:05Z</time>
      </trkpt>
      <trkpt lat="46.53875" lon="5.90896">
        <ele>878.47</ele>
        <time>2021-09-21T08:02:15Z</time>
      </trkpt>
      <trkpt lat="46.53871" lon="5.90891">
        <ele>877.92</ele>
        <time>2021-09-21T08:02:27Z</time>
      </trkpt>
      <trkpt lat="46.53873" lon="5.90885">
        <ele>879.17</ele>
        <time>2021-09-21T08:02:41Z</time>
      </trkpt>
      <trkpt lat="46.5388" lon="5.90884">
        <ele>880.04</ele>
        <time>2021-09-21T08:02:52Z</time>
      </trkpt>
      <trkpt lat="46.53889" lon="5.90885">
        <ele>881.8</ele>
        <time>2021-09-21T08:03:05Z</time>
      </trkpt>
      <trkpt lat="46.53896" lon="5.90887">
        <ele>882.17</ele>
        <time>2021-09-21T08:03:14Z</time>
      </trkpt>
      <trkpt lat="46.53902" lon="5.9089">
        <ele>882.99</ele>
        <time>2021-09-21T08:03:25Z</time>
      </trkpt>
      <trkpt lat="46.53906" lon="5.90894">
        <ele>883.63</ele>
        <time>2021-09-21T08:03:36Z</time>
      </trkpt>
      <trkpt lat="46.53905" lon="5.90893">
        <ele>883.36</ele>
        <time>2021-09-21T08:03:53Z</time>
      </trkpt>
      <trkpt lat="46.53906" lon="5.90894">
        <ele>883.65</ele>
        <time>2021-09-21T08:04:11Z</time>
      </trkpt>
      <trkpt lat="46.53907" lon="5.90895">
        <ele>883.56</ele>
        <time>2021-09-21T08:04:26Z</time>
      </trkpt>
      <trkpt lat="46.53913" lon="5.90896">
        <ele>883.96</ele>
        <time>2021-09-21T08:04:39Z</time>
      </trkpt>
      <trkpt lat="46.53915" lon="5.90899">
        <ele>885.54</ele>
        <time>2021-09-21T08:04:51Z</time>
      </trkpt>
      <trkpt lat="46.53917" lon="5.90901">
        <ele>884.99</ele>
        <time>2021-09-21T08:05:07Z</time>
      </trkpt>
      <trkpt lat="46.53915" lon="5.90903">
        <ele>884.42</ele>
        <time>2021-09-21T08:05:19Z</time>
      </trkpt>
      <trkpt lat="46.53907" lon="5.90894">
        <ele>883.86</ele>
        <time>2021-09-21T08:05:38Z</time>
      </trkpt>
      <trkpt lat="46.53907" lon="5.90895">
        <ele>883.89</ele>
        <time>2021-09-21T08:05:54Z</time>
      </trkpt>
      <trkpt lat="46.53909" lon="5.90895">
        <ele>884.52</ele>
        <time>2021-09-21T08:06:08Z</time>
      </trkpt>
      <trkpt lat="46.53908" lon="5.90894">
        <ele>884.79</ele>
        <time>2021-09-21T08:06:26Z</time>
      </trkpt>
      <trkpt lat="46.53907" lon="5.90894">
        <ele>885.08</ele>
        <time>2021-09-21T08:06:43Z</time>
      </trkpt>
      <trkpt lat="46.5391" lon="5.90897">
        <ele>884.44</ele>
        <time>2021-09-21T08:06:53Z</time>
      </trkpt>
      <trkpt lat="46.53913" lon="5.90904">
        <ele>884.92</ele>
        <time>2021-09-21T08:07:00Z</time>
      </trkpt>
      <trkpt lat="46.53918" lon="5.90913">
        <ele>884.76</ele>
        <time>2021-09-21T08:07:12Z</time>
      </trkpt>
      <trkpt lat="46.53917" lon="5.90919">
        <ele>884.27</ele>
        <time>2021-09-21T08:07:26Z</time>
      </trkpt>
      <trkpt lat="46.53915" lon="5.90918">
        <ele>884.17</ele>
        <time>2021-09-21T08:07:37Z</time>
      </trkpt>
      <trkpt lat="46.53915" lon="5.90916">
        <ele>884.28</ele>
        <time>2021-09-21T08:07:59Z</time>
      </trkpt>
      <trkpt lat="46.53915" lon="5.90917">
        <ele>884.6</ele>
        <time>2021-09-21T08:08:18Z</time>
      </trkpt>
      <trkpt lat="46.53915" lon="5.90917">
        <ele>884.36</ele>
        <time>2021-09-21T08:08:33Z</time>
      </trkpt>
      <trkpt lat="46.53916" lon="5.90918">
        <ele>884.9</ele>
        <time>2021-09-21T08:09:01Z</time>
      </trkpt>
      <trkpt lat="46.53917" lon="5.90912">
        <ele>885.88</ele>
        <time>2021-09-21T08:09:14Z</time>
      </trkpt>
      <trkpt lat="46.53918" lon="5.90908">
        <ele>886.67</ele>
        <time>2021-09-21T08:09:29Z</time>
      </trkpt>
      <trkpt lat="46.53917" lon="5.90908">
        <ele>886.51</ele>
        <time>2021-09-21T08:09:42Z</time>
      </trkpt>
      <trkpt lat="46.53915" lon="5.90911">
        <ele>886.22</ele>
        <time>2021-09-21T08:09:54Z</time>
      </trkpt>
      <trkpt lat="46.53917" lon="5.90907">
        <ele>886.78</ele>
        <time>2021-09-21T08:10:07Z</time>
      </trkpt>
      <trkpt lat="46.53917" lon="5.90906">
        <ele>887.19</ele>
        <time>2021-09-21T08:10:27Z</time>
      </trkpt>
      <trkpt lat="46.53917" lon="5.90908">
        <ele>887.53</ele>
        <time>2021-09-21T08:10:40Z</time>
      </trkpt>
      <trkpt lat="46.53921" lon="5.90914">
        <ele>887.9</ele>
        <time>2021-09-21T08:10:54Z</time>
      </trkpt>
      <trkpt lat="46.53921" lon="5.90915">
        <ele>887.61</ele>
        <time>2021-09-21T08:11:16Z</time>
      </trkpt>
      <trkpt lat="46.53919" lon="5.90911">
        <ele>887.53</ele>
        <time>2021-09-21T08:11:29Z</time>
      </trkpt>
      <trkpt lat="46.53917" lon="5.90912">
        <ele>887.51</ele>
        <time>2021-09-21T08:11:44Z</time>
      </trkpt>
      <trkpt lat="46.53917" lon="5.90912">
        <ele>887.48</ele>
        <time>2021-09-21T08:12:06Z</time>
      </trkpt>
      <trkpt lat="46.53918" lon="5.90912">
        <ele>887.82</ele>
        <time>2021-09-21T08:12:24Z</time>
      </trkpt>
      <trkpt lat="46.53915" lon="5.90911">
        <ele>888.06</ele>
        <time>2021-09-21T08:12:38Z</time>
      </trkpt>
      <trkpt lat="46.53915" lon="5.90907">
        <ele>887.87</ele>
        <time>2021-09-21T08:12:55Z</time>
      </trkpt>
      <trkpt lat="46.53912" lon="5.90898">
        <ele>887.56</ele>
        <time>2021-09-21T08:13:08Z</time>
      </trkpt>
      <trkpt lat="46.53909" lon="5.90895">
        <ele>888.02</ele>
        <time>2021-09-21T08:13:19Z</time>
      </trkpt>
      <trkpt lat="46.53908" lon="5.90894">
        <ele>887.68</ele>
        <time>2021-09-21T08:13:21Z</time>
      </trkpt>
      <trkpt lat="46.53905" lon="5.90893">
        <ele>887.82</ele>
        <time>2021-09-21T08:13:24Z</time>
      </trkpt>
      <trkpt lat="46.53891" lon="5.90884">
        <ele>886.7</ele>
        <time>2021-09-21T08:13:37Z</time>
      </trkpt>
      <trkpt lat="46.53881" lon="5.90882">
        <ele>885.97</ele>
        <time>2021-09-21T08:13:49Z</time>
      </trkpt>
      <trkpt lat="46.53877" lon="5.90882">
        <ele>884.84</ele>
        <time>2021-09-21T08:13:54Z</time>
      </trkpt>
      <trkpt lat="46.53874" lon="5.90882">
        <ele>884.69</ele>
        <time>2021-09-21T08:13:57Z</time>
      </trkpt>
      <trkpt lat="46.53872" lon="5.9088">
        <ele>883.78</ele>
        <time>2021-09-21T08:13:59Z</time>
      </trkpt>
      <trkpt lat="46.53867" lon="5.90876">
        <ele>884.04</ele>
        <time>2021-09-21T08:14:10Z</time>
      </trkpt>
      <trkpt lat="46.53863" lon="5.9087">
        <ele>883.99</ele>
        <time>2021-09-21T08:14:16Z</time>
      </trkpt>
      <trkpt lat="46.53858" lon="5.90861">
        <ele>883.69</ele>
        <time>2021-09-21T08:14:26Z</time>
      </trkpt>
      <trkpt lat="46.53858" lon="5.9086">
        <ele>884.1</ele>
        <time>2021-09-21T08:14:29Z</time>
      </trkpt>
      <trkpt lat="46.53855" lon="5.90844">
        <ele>883.71</ele>
        <time>2021-09-21T08:14:39Z</time>
      </trkpt>
      <trkpt lat="46.53853" lon="5.90828">
        <ele>884.07</ele>
        <time>2021-09-21T08:14:49Z</time>
      </trkpt>
      <trkpt lat="46.53851" lon="5.9082">
        <ele>882.85</ele>
        <time>2021-09-21T08:14:55Z</time>
      </trkpt>
      <trkpt lat="46.53841" lon="5.90802">
        <ele>881.98</ele>
        <time>2021-09-21T08:15:10Z</time>
      </trkpt>
      <trkpt lat="46.53834" lon="5.90786">
        <ele>881</ele>
        <time>2021-09-21T08:15:22Z</time>
      </trkpt>
      <trkpt lat="46.53828" lon="5.90773">
        <ele>882.13</ele>
        <time>2021-09-21T08:15:33Z</time>
      </trkpt>
      <trkpt lat="46.53823" lon="5.90762">
        <ele>882.48</ele>
        <time>2021-09-21T08:15:42Z</time>
      </trkpt>
      <trkpt lat="46.53817" lon="5.90756">
        <ele>882.98</ele>
        <time>2021-09-21T08:15:49Z</time>
      </trkpt>
      <trkpt lat="46.53813" lon="5.9075">
        <ele>882.9</ele>
        <time>2021-09-21T08:15:54Z</time>
      </trkpt>
      <trkpt lat="46.53802" lon="5.90732">
        <ele>883.27</ele>
        <time>2021-09-21T08:16:08Z</time>
      </trkpt>
      <trkpt lat="46.53793" lon="5.9072">
        <ele>882.62</ele>
        <time>2021-09-21T08:16:20Z</time>
      </trkpt>
      <trkpt lat="46.53783" lon="5.9071">
        <ele>882.55</ele>
        <time>2021-09-21T08:16:32Z</time>
      </trkpt>
      <trkpt lat="46.53778" lon="5.90701">
        <ele>883.23</ele>
        <time>2021-09-21T08:16:41Z</time>
      </trkpt>
      <trkpt lat="46.53776" lon="5.90698">
        <ele>883.05</ele>
        <time>2021-09-21T08:16:44Z</time>
      </trkpt>
      <trkpt lat="46.53766" lon="5.90685">
        <ele>883.82</ele>
        <time>2021-09-21T08:16:57Z</time>
      </trkpt>
      <trkpt lat="46.53761" lon="5.90679">
        <ele>883.46</ele>
        <time>2021-09-21T08:17:03Z</time>
      </trkpt>
      <trkpt lat="46.53751" lon="5.90669">
        <ele>883.26</ele>
        <time>2021-09-21T08:17:15Z</time>
      </trkpt>
      <trkpt lat="46.53749" lon="5.90667">
        <ele>883.28</ele>
        <time>2021-09-21T08:17:17Z</time>
      </trkpt>
      <trkpt lat="46.53738" lon="5.90654">
        <ele>883.97</ele>
        <time>2021-09-21T08:17:31Z</time>
      </trkpt>
      <trkpt lat="46.53726" lon="5.90642">
        <ele>884.83</ele>
        <time>2021-09-21T08:17:44Z</time>
      </trkpt>
      <trkpt lat="46.53717" lon="5.9063">
        <ele>885</ele>
        <time>2021-09-21T08:17:55Z</time>
      </trkpt>
      <trkpt lat="46.5371" lon="5.90622">
        <ele>884.9</ele>
        <time>2021-09-21T08:18:06Z</time>
      </trkpt>
      <trkpt lat="46.53706" lon="5.90615">
        <ele>884.42</ele>
        <time>2021-09-21T08:18:20Z</time>
      </trkpt>
      <trkpt lat="46.53697" lon="5.90603">
        <ele>884.25</ele>
        <time>2021-09-21T08:18:32Z</time>
      </trkpt>
      <trkpt lat="46.53688" lon="5.90593">
        <ele>882.95</ele>
        <time>2021-09-21T08:18:44Z</time>
      </trkpt>
      <trkpt lat="46.53678" lon="5.9058">
        <ele>881.99</ele>
        <time>2021-09-21T08:18:56Z</time>
      </trkpt>
      <trkpt lat="46.53671" lon="5.90565">
        <ele>881.2</ele>
        <time>2021-09-21T08:19:08Z</time>
      </trkpt>
      <trkpt lat="46.53672" lon="5.90561">
        <ele>881.26</ele>
        <time>2021-09-21T08:19:11Z</time>
      </trkpt>
      <trkpt lat="46.53684" lon="5.90549">
        <ele>880.3</ele>
        <time>2021-09-21T08:19:24Z</time>
      </trkpt>
      <trkpt lat="46.53687" lon="5.90544">
        <ele>880.11</ele>
        <time>2021-09-21T08:19:29Z</time>
      </trkpt>
      <trkpt lat="46.53691" lon="5.90531">
        <ele>879.33</ele>
        <time>2021-09-21T08:19:39Z</time>
      </trkpt>
      <trkpt lat="46.53689" lon="5.90527">
        <ele>880.13</ele>
        <time>2021-09-21T08:19:44Z</time>
      </trkpt>
      <trkpt lat="46.53689" lon="5.90522">
        <ele>880.07</ele>
        <time>2021-09-21T08:19:47Z</time>
      </trkpt>
      <trkpt lat="46.53681" lon="5.90503">
        <ele>879.13</ele>
        <time>2021-09-21T08:20:00Z</time>
      </trkpt>
      <trkpt lat="46.53677" lon="5.90496">
        <ele>879.31</ele>
        <time>2021-09-21T08:20:05Z</time>
      </trkpt>
      <trkpt lat="46.5367" lon="5.90482">
        <ele>878.79</ele>
        <time>2021-09-21T08:20:16Z</time>
      </trkpt>
      <trkpt lat="46.53667" lon="5.90475">
        <ele>878.44</ele>
        <time>2021-09-21T08:20:22Z</time>
      </trkpt>
      <trkpt lat="46.53666" lon="5.90472">
        <ele>878.47</ele>
        <time>2021-09-21T08:20:24Z</time>
      </trkpt>
      <trkpt lat="46.53655" lon="5.90451">
        <ele>877.21</ele>
        <time>2021-09-21T08:20:39Z</time>
      </trkpt>
      <trkpt lat="46.53647" lon="5.90441">
        <ele>878.19</ele>
        <time>2021-09-21T08:20:52Z</time>
      </trkpt>
      <trkpt lat="46.53639" lon="5.90437">
        <ele>879.44</ele>
        <time>2021-09-21T08:21:07Z</time>
      </trkpt>
      <trkpt lat="46.53634" lon="5.90432">
        <ele>878.98</ele>
        <time>2021-09-21T08:21:25Z</time>
      </trkpt>
      <trkpt lat="46.53622" lon="5.90428">
        <ele>879.36</ele>
        <time>2021-09-21T08:21:41Z</time>
      </trkpt>
      <trkpt lat="46.53615" lon="5.90432">
        <ele>879.7</ele>
        <time>2021-09-21T08:21:54Z</time>
      </trkpt>
      <trkpt lat="46.53606" lon="5.90435">
        <ele>878.13</ele>
        <time>2021-09-21T08:22:07Z</time>
      </trkpt>
      <trkpt lat="46.53604" lon="5.90436">
        <ele>878.14</ele>
        <time>2021-09-21T08:22:09Z</time>
      </trkpt>
      <trkpt lat="46.53595" lon="5.90439">
        <ele>877.86</ele>
        <time>2021-09-21T08:22:22Z</time>
      </trkpt>
      <trkpt lat="46.53591" lon="5.90442">
        <ele>877.79</ele>
        <time>2021-09-21T08:22:35Z</time>
      </trkpt>
      <trkpt lat="46.5359" lon="5.90442">
        <ele>878.12</ele>
        <time>2021-09-21T08:22:51Z</time>
      </trkpt>
      <trkpt lat="46.53588" lon="5.90441">
        <ele>877.87</ele>
        <time>2021-09-21T08:23:09Z</time>
      </trkpt>
      <trkpt lat="46.53581" lon="5.90439">
        <ele>877.76</ele>
        <time>2021-09-21T08:23:23Z</time>
      </trkpt>
      <trkpt lat="46.53573" lon="5.9044">
        <ele>876.66</ele>
        <time>2021-09-21T08:23:41Z</time>
      </trkpt>
      <trkpt lat="46.5357" lon="5.90432">
        <ele>877.31</ele>
        <time>2021-09-21T08:23:54Z</time>
      </trkpt>
      <trkpt lat="46.53563" lon="5.90424">
        <ele>878.01</ele>
        <time>2021-09-21T08:24:10Z</time>
      </trkpt>
      <trkpt lat="46.5356" lon="5.90415">
        <ele>878.09</ele>
        <time>2021-09-21T08:24:19Z</time>
      </trkpt>
      <trkpt lat="46.5356" lon="5.904">
        <ele>878.22</ele>
        <time>2021-09-21T08:24:32Z</time>
      </trkpt>
      <trkpt lat="46.53561" lon="5.90388">
        <ele>878.69</ele>
        <time>2021-09-21T08:24:46Z</time>
      </trkpt>
      <trkpt lat="46.53562" lon="5.90372">
        <ele>879.04</ele>
        <time>2021-09-21T08:25:01Z</time>
      </trkpt>
      <trkpt lat="46.53552" lon="5.90359">
        <ele>879.58</ele>
        <time>2021-09-21T08:25:16Z</time>
      </trkpt>
      <trkpt lat="46.53541" lon="5.90359">
        <ele>879.25</ele>
        <time>2021-09-21T08:25:29Z</time>
      </trkpt>
      <trkpt lat="46.53534" lon="5.90359">
        <ele>878.51</ele>
        <time>2021-09-21T08:25:36Z</time>
      </trkpt>
      <trkpt lat="46.53521" lon="5.90355">
        <ele>878.47</ele>
        <time>2021-09-21T08:25:49Z</time>
      </trkpt>
      <trkpt lat="46.53512" lon="5.90345">
        <ele>878.14</ele>
        <time>2021-09-21T08:26:02Z</time>
      </trkpt>
      <trkpt lat="46.53512" lon="5.9034">
        <ele>878.44</ele>
        <time>2021-09-21T08:26:21Z</time>
      </trkpt>
      <trkpt lat="46.53504" lon="5.90332">
        <ele>878.53</ele>
        <time>2021-09-21T08:26:35Z</time>
      </trkpt>
      <trkpt lat="46.53494" lon="5.90322">
        <ele>879.07</ele>
        <time>2021-09-21T08:26:50Z</time>
      </trkpt>
      <trkpt lat="46.53488" lon="5.90324">
        <ele>879.47</ele>
        <time>2021-09-21T08:26:54Z</time>
      </trkpt>
      <trkpt lat="46.53472" lon="5.90327">
        <ele>879.43</ele>
        <time>2021-09-21T08:27:07Z</time>
      </trkpt>
      <trkpt lat="46.53468" lon="5.90329">
        <ele>878.96</ele>
        <time>2021-09-21T08:27:10Z</time>
      </trkpt>
      <trkpt lat="46.53461" lon="5.90344">
        <ele>879.32</ele>
        <time>2021-09-21T08:27:21Z</time>
      </trkpt>
      <trkpt lat="46.53456" lon="5.9036">
        <ele>878.59</ele>
        <time>2021-09-21T08:27:31Z</time>
      </trkpt>
      <trkpt lat="46.53457" lon="5.90379">
        <ele>879.22</ele>
        <time>2021-09-21T08:27:41Z</time>
      </trkpt>
      <trkpt lat="46.53456" lon="5.90391">
        <ele>878.84</ele>
        <time>2021-09-21T08:27:48Z</time>
      </trkpt>
      <trkpt lat="46.5345" lon="5.90407">
        <ele>880.17</ele>
        <time>2021-09-21T08:28:00Z</time>
      </trkpt>
      <trkpt lat="46.53447" lon="5.90408">
        <ele>880.13</ele>
        <time>2021-09-21T08:28:02Z</time>
      </trkpt>
      <trkpt lat="46.53434" lon="5.90409">
        <ele>881.34</ele>
        <time>2021-09-21T08:28:14Z</time>
      </trkpt>
      <trkpt lat="46.53432" lon="5.90408">
        <ele>881.48</ele>
        <time>2021-09-21T08:28:16Z</time>
      </trkpt>
      <trkpt lat="46.53423" lon="5.90402">
        <ele>880.67</ele>
        <time>2021-09-21T08:28:26Z</time>
      </trkpt>
      <trkpt lat="46.53412" lon="5.90393">
        <ele>881.86</ele>
        <time>2021-09-21T08:28:39Z</time>
      </trkpt>
      <trkpt lat="46.5341" lon="5.90389">
        <ele>882.17</ele>
        <time>2021-09-21T08:28:53Z</time>
      </trkpt>
      <trkpt lat="46.53407" lon="5.9038">
        <ele>882.9</ele>
        <time>2021-09-21T08:29:07Z</time>
      </trkpt>
      <trkpt lat="46.53404" lon="5.90372">
        <ele>883.57</ele>
        <time>2021-09-21T08:29:18Z</time>
      </trkpt>
      <trkpt lat="46.53401" lon="5.90358">
        <ele>884.42</ele>
        <time>2021-09-21T08:29:36Z</time>
      </trkpt>
      <trkpt lat="46.53401" lon="5.90348">
        <ele>884.48</ele>
        <time>2021-09-21T08:29:51Z</time>
      </trkpt>
      <trkpt lat="46.534" lon="5.90338">
        <ele>884.58</ele>
        <time>2021-09-21T08:29:58Z</time>
      </trkpt>
      <trkpt lat="46.53398" lon="5.9032">
        <ele>885.76</ele>
        <time>2021-09-21T08:30:11Z</time>
      </trkpt>
      <trkpt lat="46.53392" lon="5.90301">
        <ele>887.18</ele>
        <time>2021-09-21T08:30:26Z</time>
      </trkpt>
      <trkpt lat="46.53387" lon="5.90292">
        <ele>887.58</ele>
        <time>2021-09-21T08:30:33Z</time>
      </trkpt>
      <trkpt lat="46.53381" lon="5.90283">
        <ele>888.14</ele>
        <time>2021-09-21T08:30:44Z</time>
      </trkpt>
      <trkpt lat="46.53371" lon="5.90271">
        <ele>889.88</ele>
        <time>2021-09-21T08:30:56Z</time>
      </trkpt>
      <trkpt lat="46.53362" lon="5.90262">
        <ele>890.97</ele>
        <time>2021-09-21T08:31:07Z</time>
      </trkpt>
      <trkpt lat="46.5335" lon="5.90253">
        <ele>892.34</ele>
        <time>2021-09-21T08:31:19Z</time>
      </trkpt>
      <trkpt lat="46.53349" lon="5.90252">
        <ele>892.77</ele>
        <time>2021-09-21T08:31:33Z</time>
      </trkpt>
      <trkpt lat="46.53349" lon="5.90252">
        <ele>891.88</ele>
        <time>2021-09-21T08:31:52Z</time>
      </trkpt>
      <trkpt lat="46.53348" lon="5.90252">
        <ele>892.3</ele>
        <time>2021-09-21T08:32:08Z</time>
      </trkpt>
      <trkpt lat="46.53345" lon="5.90248">
        <ele>892.7</ele>
        <time>2021-09-21T08:32:21Z</time>
      </trkpt>
      <trkpt lat="46.53338" lon="5.90241">
        <ele>893.62</ele>
        <time>2021-09-21T08:32:31Z</time>
      </trkpt>
      <trkpt lat="46.53332" lon="5.90234">
        <ele>893.88</ele>
        <time>2021-09-21T08:32:38Z</time>
      </trkpt>
      <trkpt lat="46.53326" lon="5.90229">
        <ele>894.62</ele>
        <time>2021-09-21T08:32:44Z</time>
      </trkpt>
      <trkpt lat="46.53314" lon="5.90222">
        <ele>894.72</ele>
        <time>2021-09-21T08:32:55Z</time>
      </trkpt>
      <trkpt lat="46.53302" lon="5.9021">
        <ele>894.73</ele>
        <time>2021-09-21T08:33:07Z</time>
      </trkpt>
      <trkpt lat="46.53297" lon="5.90204">
        <ele>894.5</ele>
        <time>2021-09-21T08:33:12Z</time>
      </trkpt>
      <trkpt lat="46.53289" lon="5.90191">
        <ele>895.46</ele>
        <time>2021-09-21T08:33:24Z</time>
      </trkpt>
      <trkpt lat="46.53277" lon="5.90178">
        <ele>894.89</ele>
        <time>2021-09-21T08:33:37Z</time>
      </trkpt>
      <trkpt lat="46.53267" lon="5.90166">
        <ele>896.05</ele>
        <time>2021-09-21T08:33:49Z</time>
      </trkpt>
      <trkpt lat="46.53261" lon="5.9016">
        <ele>896.01</ele>
        <time>2021-09-21T08:33:55Z</time>
      </trkpt>
      <trkpt lat="46.53256" lon="5.90154">
        <ele>896.68</ele>
        <time>2021-09-21T08:34:01Z</time>
      </trkpt>
      <trkpt lat="46.53244" lon="5.90147">
        <ele>896.75</ele>
        <time>2021-09-21T08:34:13Z</time>
      </trkpt>
      <trkpt lat="46.53231" lon="5.90135">
        <ele>897.32</ele>
        <time>2021-09-21T08:34:26Z</time>
      </trkpt>
      <trkpt lat="46.53218" lon="5.90125">
        <ele>897.33</ele>
        <time>2021-09-21T08:34:38Z</time>
      </trkpt>
      <trkpt lat="46.53205" lon="5.90114">
        <ele>897.83</ele>
        <time>2021-09-21T08:34:51Z</time>
      </trkpt>
      <trkpt lat="46.53197" lon="5.90103">
        <ele>897.8</ele>
        <time>2021-09-21T08:35:01Z</time>
      </trkpt>
      <trkpt lat="46.53188" lon="5.90088">
        <ele>897.58</ele>
        <time>2021-09-21T08:35:13Z</time>
      </trkpt>
      <trkpt lat="46.53181" lon="5.90074">
        <ele>896.85</ele>
        <time>2021-09-21T08:35:24Z</time>
      </trkpt>
      <trkpt lat="46.53173" lon="5.90066">
        <ele>897.25</ele>
        <time>2021-09-21T08:35:35Z</time>
      </trkpt>
      <trkpt lat="46.53173" lon="5.90066">
        <ele>896.48</ele>
        <time>2021-09-21T08:35:36Z</time>
      </trkpt>
      <trkpt lat="46.53169" lon="5.90063">
        <ele>896.85</ele>
        <time>2021-09-21T08:35:40Z</time>
      </trkpt>
      <trkpt lat="46.53156" lon="5.90048">
        <ele>895.65</ele>
        <time>2021-09-21T08:35:53Z</time>
      </trkpt>
      <trkpt lat="46.53144" lon="5.90029">
        <ele>894.64</ele>
        <time>2021-09-21T08:36:08Z</time>
      </trkpt>
      <trkpt lat="46.53136" lon="5.90006">
        <ele>894.48</ele>
        <time>2021-09-21T08:36:23Z</time>
      </trkpt>
      <trkpt lat="46.53132" lon="5.89981">
        <ele>894.97</ele>
        <time>2021-09-21T08:36:37Z</time>
      </trkpt>
      <trkpt lat="46.53128" lon="5.89969">
        <ele>894.73</ele>
        <time>2021-09-21T08:36:45Z</time>
      </trkpt>
      <trkpt lat="46.53118" lon="5.89953">
        <ele>895.97</ele>
        <time>2021-09-21T08:36:58Z</time>
      </trkpt>
      <trkpt lat="46.53105" lon="5.89945">
        <ele>894.83</ele>
        <time>2021-09-21T08:37:10Z</time>
      </trkpt>
      <trkpt lat="46.53091" lon="5.89933">
        <ele>893.87</ele>
        <time>2021-09-21T08:37:23Z</time>
      </trkpt>
      <trkpt lat="46.53077" lon="5.89923">
        <ele>893.55</ele>
        <time>2021-09-21T08:37:36Z</time>
      </trkpt>
      <trkpt lat="46.53074" lon="5.89921">
        <ele>893.37</ele>
        <time>2021-09-21T08:37:39Z</time>
      </trkpt>
      <trkpt lat="46.5307" lon="5.89917">
        <ele>893.75</ele>
        <time>2021-09-21T08:37:45Z</time>
      </trkpt>
      <trkpt lat="46.53066" lon="5.89909">
        <ele>893.02</ele>
        <time>2021-09-21T08:37:51Z</time>
      </trkpt>
      <trkpt lat="46.53054" lon="5.89892">
        <ele>891.78</ele>
        <time>2021-09-21T08:38:05Z</time>
      </trkpt>
      <trkpt lat="46.53052" lon="5.89889">
        <ele>892.44</ele>
        <time>2021-09-21T08:38:08Z</time>
      </trkpt>
      <trkpt lat="46.53043" lon="5.89877">
        <ele>892.18</ele>
        <time>2021-09-21T08:38:20Z</time>
      </trkpt>
      <trkpt lat="46.5303" lon="5.89861">
        <ele>892.4</ele>
        <time>2021-09-21T08:38:35Z</time>
      </trkpt>
      <trkpt lat="46.53013" lon="5.89845">
        <ele>892.33</ele>
        <time>2021-09-21T08:38:51Z</time>
      </trkpt>
      <trkpt lat="46.53008" lon="5.89844">
        <ele>892.14</ele>
        <time>2021-09-21T08:38:55Z</time>
      </trkpt>
      <trkpt lat="46.52994" lon="5.89837">
        <ele>892.15</ele>
        <time>2021-09-21T08:39:08Z</time>
      </trkpt>
      <trkpt lat="46.5299" lon="5.89835">
        <ele>892.12</ele>
        <time>2021-09-21T08:39:13Z</time>
      </trkpt>
      <trkpt lat="46.52986" lon="5.89835">
        <ele>891.39</ele>
        <time>2021-09-21T08:39:17Z</time>
      </trkpt>
      <trkpt lat="46.52983" lon="5.89834">
        <ele>891.41</ele>
        <time>2021-09-21T08:39:20Z</time>
      </trkpt>
      <trkpt lat="46.52975" lon="5.89828">
        <ele>891.45</ele>
        <time>2021-09-21T08:39:29Z</time>
      </trkpt>
      <trkpt lat="46.52969" lon="5.89823">
        <ele>891.48</ele>
        <time>2021-09-21T08:39:35Z</time>
      </trkpt>
      <trkpt lat="46.52958" lon="5.89816">
        <ele>890.95</ele>
        <time>2021-09-21T08:39:47Z</time>
      </trkpt>
      <trkpt lat="46.52948" lon="5.89806">
        <ele>889.93</ele>
        <time>2021-09-21T08:40:01Z</time>
      </trkpt>
      <trkpt lat="46.52946" lon="5.89804">
        <ele>889.92</ele>
        <time>2021-09-21T08:40:03Z</time>
      </trkpt>
      <trkpt lat="46.52935" lon="5.89798">
        <ele>890.89</ele>
        <time>2021-09-21T08:40:16Z</time>
      </trkpt>
      <trkpt lat="46.52931" lon="5.89799">
        <ele>890.71</ele>
        <time>2021-09-21T08:40:22Z</time>
      </trkpt>
      <trkpt lat="46.52917" lon="5.89799">
        <ele>891.98</ele>
        <time>2021-09-21T08:40:35Z</time>
      </trkpt>
      <trkpt lat="46.52908" lon="5.89798">
        <ele>891.53</ele>
        <time>2021-09-21T08:40:46Z</time>
      </trkpt>
      <trkpt lat="46.52899" lon="5.89794">
        <ele>891.64</ele>
        <time>2021-09-21T08:40:59Z</time>
      </trkpt>
      <trkpt lat="46.5289" lon="5.89792">
        <ele>891.94</ele>
        <time>2021-09-21T08:41:10Z</time>
      </trkpt>
      <trkpt lat="46.52886" lon="5.89791">
        <ele>891.67</ele>
        <time>2021-09-21T08:41:13Z</time>
      </trkpt>
      <trkpt lat="46.52877" lon="5.89789">
        <ele>892.1</ele>
        <time>2021-09-21T08:41:24Z</time>
      </trkpt>
      <trkpt lat="46.52875" lon="5.89789">
        <ele>892.35</ele>
        <time>2021-09-21T08:41:33Z</time>
      </trkpt>
      <trkpt lat="46.52867" lon="5.89789">
        <ele>891.51</ele>
        <time>2021-09-21T08:41:40Z</time>
      </trkpt>
      <trkpt lat="46.52864" lon="5.89789">
        <ele>891.37</ele>
        <time>2021-09-21T08:41:42Z</time>
      </trkpt>
      <trkpt lat="46.52853" lon="5.89786">
        <ele>891.52</ele>
        <time>2021-09-21T08:41:54Z</time>
      </trkpt>
      <trkpt lat="46.52841" lon="5.89783">
        <ele>891.5</ele>
        <time>2021-09-21T08:42:06Z</time>
      </trkpt>
      <trkpt lat="46.52831" lon="5.89778">
        <ele>891.23</ele>
        <time>2021-09-21T08:42:17Z</time>
      </trkpt>
      <trkpt lat="46.52817" lon="5.89774">
        <ele>890.66</ele>
        <time>2021-09-21T08:42:29Z</time>
      </trkpt>
      <trkpt lat="46.52812" lon="5.89772">
        <ele>890.68</ele>
        <time>2021-09-21T08:42:33Z</time>
      </trkpt>
      <trkpt lat="46.52802" lon="5.89767">
        <ele>890.02</ele>
        <time>2021-09-21T08:42:42Z</time>
      </trkpt>
      <trkpt lat="46.52789" lon="5.89761">
        <ele>890.06</ele>
        <time>2021-09-21T08:42:53Z</time>
      </trkpt>
      <trkpt lat="46.52782" lon="5.89756">
        <ele>889.55</ele>
        <time>2021-09-21T08:43:04Z</time>
      </trkpt>
      <trkpt lat="46.52776" lon="5.89754">
        <ele>889.91</ele>
        <time>2021-09-21T08:43:14Z</time>
      </trkpt>
      <trkpt lat="46.5277" lon="5.89756">
        <ele>889.53</ele>
        <time>2021-09-21T08:43:23Z</time>
      </trkpt>
      <trkpt lat="46.52769" lon="5.89758">
        <ele>889.35</ele>
        <time>2021-09-21T08:43:25Z</time>
      </trkpt>
      <trkpt lat="46.52768" lon="5.89761">
        <ele>888.58</ele>
        <time>2021-09-21T08:43:28Z</time>
      </trkpt>
      <trkpt lat="46.52765" lon="5.89766">
        <ele>888.49</ele>
        <time>2021-09-21T08:43:32Z</time>
      </trkpt>
      <trkpt lat="46.5276" lon="5.89787">
        <ele>886.97</ele>
        <time>2021-09-21T08:43:47Z</time>
      </trkpt>
      <trkpt lat="46.52757" lon="5.8979">
        <ele>886.9</ele>
        <time>2021-09-21T08:43:59Z</time>
      </trkpt>
      <trkpt lat="46.52748" lon="5.89794">
        <ele>886.04</ele>
        <time>2021-09-21T08:44:11Z</time>
      </trkpt>
      <trkpt lat="46.52746" lon="5.89795">
        <ele>885.95</ele>
        <time>2021-09-21T08:44:14Z</time>
      </trkpt>
      <trkpt lat="46.52733" lon="5.89791">
        <ele>883.8</ele>
        <time>2021-09-21T08:44:29Z</time>
      </trkpt>
      <trkpt lat="46.52721" lon="5.89793">
        <ele>883.2</ele>
        <time>2021-09-21T08:44:41Z</time>
      </trkpt>
      <trkpt lat="46.52708" lon="5.89799">
        <ele>882.97</ele>
        <time>2021-09-21T08:44:53Z</time>
      </trkpt>
      <trkpt lat="46.527" lon="5.89807">
        <ele>883.29</ele>
        <time>2021-09-21T08:45:03Z</time>
      </trkpt>
      <trkpt lat="46.52693" lon="5.89815">
        <ele>883.27</ele>
        <time>2021-09-21T08:45:12Z</time>
      </trkpt>
      <trkpt lat="46.52686" lon="5.89817">
        <ele>882.73</ele>
        <time>2021-09-21T08:45:20Z</time>
      </trkpt>
      <trkpt lat="46.52674" lon="5.89815">
        <ele>883.06</ele>
        <time>2021-09-21T08:45:34Z</time>
      </trkpt>
      <trkpt lat="46.52668" lon="5.89813">
        <ele>882.72</ele>
        <time>2021-09-21T08:45:42Z</time>
      </trkpt>
      <trkpt lat="46.52656" lon="5.89809">
        <ele>882.6</ele>
        <time>2021-09-21T08:45:55Z</time>
      </trkpt>
      <trkpt lat="46.52648" lon="5.89803">
        <ele>882.23</ele>
        <time>2021-09-21T08:46:05Z</time>
      </trkpt>
      <trkpt lat="46.5264" lon="5.89797">
        <ele>881.88</ele>
        <time>2021-09-21T08:46:15Z</time>
      </trkpt>
      <trkpt lat="46.5263" lon="5.89788">
        <ele>882.05</ele>
        <time>2021-09-21T08:46:29Z</time>
      </trkpt>
      <trkpt lat="46.52621" lon="5.89779">
        <ele>881.88</ele>
        <time>2021-09-21T08:46:40Z</time>
      </trkpt>
      <trkpt lat="46.52611" lon="5.89766">
        <ele>882.27</ele>
        <time>2021-09-21T08:46:53Z</time>
      </trkpt>
      <trkpt lat="46.52601" lon="5.89752">
        <ele>881.76</ele>
        <time>2021-09-21T08:47:07Z</time>
      </trkpt>
      <trkpt lat="46.52591" lon="5.89741">
        <ele>881.5</ele>
        <time>2021-09-21T08:47:19Z</time>
      </trkpt>
      <trkpt lat="46.5259" lon="5.89739">
        <ele>881.55</ele>
        <time>2021-09-21T08:47:21Z</time>
      </trkpt>
      <trkpt lat="46.52581" lon="5.89726">
        <ele>882.39</ele>
        <time>2021-09-21T08:47:33Z</time>
      </trkpt>
      <trkpt lat="46.52574" lon="5.89717">
        <ele>882.22</ele>
        <time>2021-09-21T08:47:41Z</time>
      </trkpt>
      <trkpt lat="46.52565" lon="5.89707">
        <ele>882.57</ele>
        <time>2021-09-21T08:47:52Z</time>
      </trkpt>
      <trkpt lat="46.52555" lon="5.89699">
        <ele>882.66</ele>
        <time>2021-09-21T08:48:03Z</time>
      </trkpt>
      <trkpt lat="46.52552" lon="5.89698">
        <ele>882.59</ele>
        <time>2021-09-21T08:48:05Z</time>
      </trkpt>
      <trkpt lat="46.52549" lon="5.89696">
        <ele>882.49</ele>
        <time>2021-09-21T08:48:08Z</time>
      </trkpt>
      <trkpt lat="46.52537" lon="5.89689">
        <ele>882.75</ele>
        <time>2021-09-21T08:48:20Z</time>
      </trkpt>
      <trkpt lat="46.52527" lon="5.89685">
        <ele>882.4</ele>
        <time>2021-09-21T08:48:30Z</time>
      </trkpt>
      <trkpt lat="46.52523" lon="5.89684">
        <ele>882.78</ele>
        <time>2021-09-21T08:48:34Z</time>
      </trkpt>
      <trkpt lat="46.5251" lon="5.89676">
        <ele>883.45</ele>
        <time>2021-09-21T08:48:47Z</time>
      </trkpt>
      <trkpt lat="46.52499" lon="5.89665">
        <ele>883.59</ele>
        <time>2021-09-21T08:48:59Z</time>
      </trkpt>
      <trkpt lat="46.52498" lon="5.89664">
        <ele>884.49</ele>
        <time>2021-09-21T08:49:01Z</time>
      </trkpt>
      <trkpt lat="46.52489" lon="5.8965">
        <ele>884.41</ele>
        <time>2021-09-21T08:49:13Z</time>
      </trkpt>
      <trkpt lat="46.52478" lon="5.89628">
        <ele>885.1</ele>
        <time>2021-09-21T08:49:30Z</time>
      </trkpt>
      <trkpt lat="46.52469" lon="5.89611">
        <ele>885.12</ele>
        <time>2021-09-21T08:49:43Z</time>
      </trkpt>
      <trkpt lat="46.5246" lon="5.89595">
        <ele>885.8</ele>
        <time>2021-09-21T08:49:56Z</time>
      </trkpt>
      <trkpt lat="46.52452" lon="5.89582">
        <ele>885.67</ele>
        <time>2021-09-21T08:50:08Z</time>
      </trkpt>
      <trkpt lat="46.52443" lon="5.89566">
        <ele>884.83</ele>
        <time>2021-09-21T08:50:21Z</time>
      </trkpt>
      <trkpt lat="46.52434" lon="5.89553">
        <ele>883.58</ele>
        <time>2021-09-21T08:50:33Z</time>
      </trkpt>
      <trkpt lat="46.52425" lon="5.89539">
        <ele>882.15</ele>
        <time>2021-09-21T08:50:45Z</time>
      </trkpt>
      <trkpt lat="46.52424" lon="5.89538">
        <ele>882.25</ele>
        <time>2021-09-21T08:50:46Z</time>
      </trkpt>
      <trkpt lat="46.52421" lon="5.89534">
        <ele>881.86</ele>
        <time>2021-09-21T08:50:50Z</time>
      </trkpt>
      <trkpt lat="46.52408" lon="5.89526">
        <ele>881.16</ele>
        <time>2021-09-21T08:51:03Z</time>
      </trkpt>
      <trkpt lat="46.52401" lon="5.89533">
        <ele>880.48</ele>
        <time>2021-09-21T08:51:13Z</time>
      </trkpt>
      <trkpt lat="46.52396" lon="5.89539">
        <ele>880.8</ele>
        <time>2021-09-21T08:51:34Z</time>
      </trkpt>
      <trkpt lat="46.52389" lon="5.89552">
        <ele>880.67</ele>
        <time>2021-09-21T08:51:45Z</time>
      </trkpt>
      <trkpt lat="46.5238" lon="5.89566">
        <ele>880.09</ele>
        <time>2021-09-21T08:51:58Z</time>
      </trkpt>
      <trkpt lat="46.52371" lon="5.89582">
        <ele>879.72</ele>
        <time>2021-09-21T08:52:11Z</time>
      </trkpt>
      <trkpt lat="46.52364" lon="5.89597">
        <ele>878.91</ele>
        <time>2021-09-21T08:52:22Z</time>
      </trkpt>
      <trkpt lat="46.52361" lon="5.89603">
        <ele>879.36</ele>
        <time>2021-09-21T08:52:27Z</time>
      </trkpt>
      <trkpt lat="46.52353" lon="5.89622">
        <ele>878.29</ele>
        <time>2021-09-21T08:52:41Z</time>
      </trkpt>
      <trkpt lat="46.52348" lon="5.89634">
        <ele>878.36</ele>
        <time>2021-09-21T08:52:51Z</time>
      </trkpt>
      <trkpt lat="46.52342" lon="5.89654">
        <ele>878.36</ele>
        <time>2021-09-21T08:53:04Z</time>
      </trkpt>
      <trkpt lat="46.52338" lon="5.89667">
        <ele>878.14</ele>
        <time>2021-09-21T08:53:13Z</time>
      </trkpt>
      <trkpt lat="46.52335" lon="5.89673">
        <ele>878.42</ele>
        <time>2021-09-21T08:53:18Z</time>
      </trkpt>
      <trkpt lat="46.5233" lon="5.89687">
        <ele>877.69</ele>
        <time>2021-09-21T08:53:29Z</time>
      </trkpt>
      <trkpt lat="46.52327" lon="5.89695">
        <ele>878.1</ele>
        <time>2021-09-21T08:53:35Z</time>
      </trkpt>
      <trkpt lat="46.52318" lon="5.89708">
        <ele>877.99</ele>
        <time>2021-09-21T08:53:47Z</time>
      </trkpt>
      <trkpt lat="46.52308" lon="5.89717">
        <ele>877.74</ele>
        <time>2021-09-21T08:53:59Z</time>
      </trkpt>
      <trkpt lat="46.52296" lon="5.89726">
        <ele>877.41</ele>
        <time>2021-09-21T08:54:11Z</time>
      </trkpt>
      <trkpt lat="46.52282" lon="5.89734">
        <ele>877.41</ele>
        <time>2021-09-21T08:54:25Z</time>
      </trkpt>
      <trkpt lat="46.52275" lon="5.89741">
        <ele>877.19</ele>
        <time>2021-09-21T08:54:37Z</time>
      </trkpt>
      <trkpt lat="46.52268" lon="5.89752">
        <ele>877.61</ele>
        <time>2021-09-21T08:54:49Z</time>
      </trkpt>
      <trkpt lat="46.52258" lon="5.8977">
        <ele>877.38</ele>
        <time>2021-09-21T08:55:04Z</time>
      </trkpt>
      <trkpt lat="46.52248" lon="5.89789">
        <ele>877.35</ele>
        <time>2021-09-21T08:55:19Z</time>
      </trkpt>
      <trkpt lat="46.52238" lon="5.89806">
        <ele>878.49</ele>
        <time>2021-09-21T08:55:33Z</time>
      </trkpt>
      <trkpt lat="46.52232" lon="5.89819">
        <ele>879.13</ele>
        <time>2021-09-21T08:55:44Z</time>
      </trkpt>
      <trkpt lat="46.5223" lon="5.89823">
        <ele>879.05</ele>
        <time>2021-09-21T08:55:50Z</time>
      </trkpt>
      <trkpt lat="46.52229" lon="5.89826">
        <ele>878.89</ele>
        <time>2021-09-21T08:55:52Z</time>
      </trkpt>
      <trkpt lat="46.52224" lon="5.89843">
        <ele>879.73</ele>
        <time>2021-09-21T08:56:06Z</time>
      </trkpt>
      <trkpt lat="46.52222" lon="5.89859">
        <ele>879.08</ele>
        <time>2021-09-21T08:56:17Z</time>
      </trkpt>
      <trkpt lat="46.52219" lon="5.89877">
        <ele>878.87</ele>
        <time>2021-09-21T08:56:29Z</time>
      </trkpt>
      <trkpt lat="46.52218" lon="5.89893">
        <ele>878.31</ele>
        <time>2021-09-21T08:56:41Z</time>
      </trkpt>
      <trkpt lat="46.52215" lon="5.8991">
        <ele>877.58</ele>
        <time>2021-09-21T08:56:53Z</time>
      </trkpt>
      <trkpt lat="46.52213" lon="5.89931">
        <ele>877.29</ele>
        <time>2021-09-21T08:57:06Z</time>
      </trkpt>
      <trkpt lat="46.5221" lon="5.89949">
        <ele>876.25</ele>
        <time>2021-09-21T08:57:18Z</time>
      </trkpt>
      <trkpt lat="46.52206" lon="5.89967">
        <ele>876.12</ele>
        <time>2021-09-21T08:57:31Z</time>
      </trkpt>
      <trkpt lat="46.52202" lon="5.89985">
        <ele>876.41</ele>
        <time>2021-09-21T08:57:43Z</time>
      </trkpt>
      <trkpt lat="46.52196" lon="5.90002">
        <ele>876.42</ele>
        <time>2021-09-21T08:57:56Z</time>
      </trkpt>
      <trkpt lat="46.52191" lon="5.9002">
        <ele>875.59</ele>
        <time>2021-09-21T08:58:09Z</time>
      </trkpt>
      <trkpt lat="46.52186" lon="5.90043">
        <ele>875.78</ele>
        <time>2021-09-21T08:58:24Z</time>
      </trkpt>
      <trkpt lat="46.52184" lon="5.90047">
        <ele>876.23</ele>
        <time>2021-09-21T08:58:27Z</time>
      </trkpt>
      <trkpt lat="46.52176" lon="5.9006">
        <ele>876.48</ele>
        <time>2021-09-21T08:58:38Z</time>
      </trkpt>
      <trkpt lat="46.52164" lon="5.9007">
        <ele>878.17</ele>
        <time>2021-09-21T08:58:51Z</time>
      </trkpt>
      <trkpt lat="46.52147" lon="5.90082">
        <ele>880.34</ele>
        <time>2021-09-21T08:59:09Z</time>
      </trkpt>
      <trkpt lat="46.52146" lon="5.90083">
        <ele>880.11</ele>
        <time>2021-09-21T08:59:24Z</time>
      </trkpt>
      <trkpt lat="46.52147" lon="5.90084">
        <ele>879.69</ele>
        <time>2021-09-21T08:59:42Z</time>
      </trkpt>
      <trkpt lat="46.52147" lon="5.90086">
        <ele>880.25</ele>
        <time>2021-09-21T08:59:56Z</time>
      </trkpt>
      <trkpt lat="46.52146" lon="5.90089">
        <ele>880.29</ele>
        <time>2021-09-21T09:00:09Z</time>
      </trkpt>
      <trkpt lat="46.52147" lon="5.9009">
        <ele>880.83</ele>
        <time>2021-09-21T09:00:28Z</time>
      </trkpt>
      <trkpt lat="46.52143" lon="5.90086">
        <ele>880.58</ele>
        <time>2021-09-21T09:00:38Z</time>
      </trkpt>
      <trkpt lat="46.52144" lon="5.90085">
        <ele>880.57</ele>
        <time>2021-09-21T09:00:52Z</time>
      </trkpt>
      <trkpt lat="46.52141" lon="5.90085">
        <ele>881.06</ele>
        <time>2021-09-21T09:01:18Z</time>
      </trkpt>
      <trkpt lat="46.52139" lon="5.90088">
        <ele>881.11</ele>
        <time>2021-09-21T09:01:35Z</time>
      </trkpt>
      <trkpt lat="46.52133" lon="5.90099">
        <ele>882.32</ele>
        <time>2021-09-21T09:01:46Z</time>
      </trkpt>
      <trkpt lat="46.52134" lon="5.90107">
        <ele>883.02</ele>
        <time>2021-09-21T09:01:57Z</time>
      </trkpt>
      <trkpt lat="46.52137" lon="5.9012">
        <ele>883.86</ele>
        <time>2021-09-21T09:02:10Z</time>
      </trkpt>
      <trkpt lat="46.52143" lon="5.9013">
        <ele>884.93</ele>
        <time>2021-09-21T09:02:22Z</time>
      </trkpt>
      <trkpt lat="46.52146" lon="5.90135">
        <ele>884.84</ele>
        <time>2021-09-21T09:02:26Z</time>
      </trkpt>
      <trkpt lat="46.52153" lon="5.90148">
        <ele>885.97</ele>
        <time>2021-09-21T09:02:38Z</time>
      </trkpt>
      <trkpt lat="46.52155" lon="5.9016">
        <ele>886.11</ele>
        <time>2021-09-21T09:02:49Z</time>
      </trkpt>
      <trkpt lat="46.52157" lon="5.90171">
        <ele>886.7</ele>
        <time>2021-09-21T09:02:57Z</time>
      </trkpt>
      <trkpt lat="46.52158" lon="5.90178">
        <ele>887.08</ele>
        <time>2021-09-21T09:03:02Z</time>
      </trkpt>
      <trkpt lat="46.52161" lon="5.90191">
        <ele>888.28</ele>
        <time>2021-09-21T09:03:13Z</time>
      </trkpt>
      <trkpt lat="46.52163" lon="5.902">
        <ele>888.4</ele>
        <time>2021-09-21T09:03:21Z</time>
      </trkpt>
      <trkpt lat="46.52167" lon="5.90214">
        <ele>889.46</ele>
        <time>2021-09-21T09:03:35Z</time>
      </trkpt>
      <trkpt lat="46.52167" lon="5.90213">
        <ele>889.38</ele>
        <time>2021-09-21T09:03:36Z</time>
      </trkpt>
      <trkpt lat="46.52162" lon="5.90218">
        <ele>889.94</ele>
        <time>2021-09-21T09:03:44Z</time>
      </trkpt>
      <trkpt lat="46.5216" lon="5.90218">
        <ele>889.88</ele>
        <time>2021-09-21T09:03:46Z</time>
      </trkpt>
      <trkpt lat="46.52149" lon="5.90213">
        <ele>891.18</ele>
        <time>2021-09-21T09:03:56Z</time>
      </trkpt>
      <trkpt lat="46.52145" lon="5.90203">
        <ele>891.72</ele>
        <time>2021-09-21T09:04:04Z</time>
      </trkpt>
      <trkpt lat="46.52143" lon="5.90202">
        <ele>892.05</ele>
        <time>2021-09-21T09:04:06Z</time>
      </trkpt>
      <trkpt lat="46.52135" lon="5.90184">
        <ele>893.15</ele>
        <time>2021-09-21T09:04:20Z</time>
      </trkpt>
      <trkpt lat="46.52134" lon="5.90184">
        <ele>893.8</ele>
        <time>2021-09-21T09:04:25Z</time>
      </trkpt>
      <trkpt lat="46.52121" lon="5.9017">
        <ele>894.74</ele>
        <time>2021-09-21T09:04:36Z</time>
      </trkpt>
      <trkpt lat="46.5212" lon="5.90169">
        <ele>894.6</ele>
        <time>2021-09-21T09:04:38Z</time>
      </trkpt>
      <trkpt lat="46.52118" lon="5.90166">
        <ele>894.55</ele>
        <time>2021-09-21T09:04:39Z</time>
      </trkpt>
      <trkpt lat="46.52109" lon="5.90159">
        <ele>895.45</ele>
        <time>2021-09-21T09:04:47Z</time>
      </trkpt>
      <trkpt lat="46.52108" lon="5.90158">
        <ele>895.82</ele>
        <time>2021-09-21T09:04:48Z</time>
      </trkpt>
      <trkpt lat="46.52104" lon="5.90154">
        <ele>896.46</ele>
        <time>2021-09-21T09:04:52Z</time>
      </trkpt>
      <trkpt lat="46.52098" lon="5.90153">
        <ele>896.64</ele>
        <time>2021-09-21T09:04:59Z</time>
      </trkpt>
      <trkpt lat="46.52096" lon="5.90152">
        <ele>897.12</ele>
        <time>2021-09-21T09:05:03Z</time>
      </trkpt>
      <trkpt lat="46.52094" lon="5.90151">
        <ele>897.24</ele>
        <time>2021-09-21T09:05:04Z</time>
      </trkpt>
      <trkpt lat="46.52092" lon="5.90152">
        <ele>897.67</ele>
        <time>2021-09-21T09:05:07Z</time>
      </trkpt>
      <trkpt lat="46.52084" lon="5.90154">
        <ele>898.66</ele>
        <time>2021-09-21T09:05:17Z</time>
      </trkpt>
      <trkpt lat="46.52074" lon="5.90162">
        <ele>898.93</ele>
        <time>2021-09-21T09:05:30Z</time>
      </trkpt>
      <trkpt lat="46.52065" lon="5.90168">
        <ele>899.72</ele>
        <time>2021-09-21T09:05:40Z</time>
      </trkpt>
      <trkpt lat="46.52053" lon="5.90172">
        <ele>900.3</ele>
        <time>2021-09-21T09:05:51Z</time>
      </trkpt>
      <trkpt lat="46.52041" lon="5.90181">
        <ele>900.52</ele>
        <time>2021-09-21T09:06:03Z</time>
      </trkpt>
      <trkpt lat="46.52038" lon="5.90184">
        <ele>900.72</ele>
        <time>2021-09-21T09:06:07Z</time>
      </trkpt>
      <trkpt lat="46.52033" lon="5.90196">
        <ele>900.71</ele>
        <time>2021-09-21T09:06:16Z</time>
      </trkpt>
      <trkpt lat="46.52033" lon="5.90197">
        <ele>901.28</ele>
        <time>2021-09-21T09:06:17Z</time>
      </trkpt>
      <trkpt lat="46.52034" lon="5.90212">
        <ele>902.57</ele>
        <time>2021-09-21T09:06:29Z</time>
      </trkpt>
      <trkpt lat="46.52033" lon="5.90214">
        <ele>902.08</ele>
        <time>2021-09-21T09:06:30Z</time>
      </trkpt>
      <trkpt lat="46.52035" lon="5.90221">
        <ele>902.66</ele>
        <time>2021-09-21T09:06:35Z</time>
      </trkpt>
      <trkpt lat="46.52035" lon="5.90223">
        <ele>902.45</ele>
        <time>2021-09-21T09:06:36Z</time>
      </trkpt>
      <trkpt lat="46.52039" lon="5.90235">
        <ele>903.77</ele>
        <time>2021-09-21T09:06:45Z</time>
      </trkpt>
      <trkpt lat="46.52041" lon="5.90241">
        <ele>904.2</ele>
        <time>2021-09-21T09:06:50Z</time>
      </trkpt>
      <trkpt lat="46.52042" lon="5.90245">
        <ele>904.45</ele>
        <time>2021-09-21T09:06:53Z</time>
      </trkpt>
      <trkpt lat="46.52045" lon="5.90256">
        <ele>905.16</ele>
        <time>2021-09-21T09:07:01Z</time>
      </trkpt>
      <trkpt lat="46.52045" lon="5.90258">
        <ele>905.35</ele>
        <time>2021-09-21T09:07:02Z</time>
      </trkpt>
      <trkpt lat="46.52046" lon="5.90266">
        <ele>905.53</ele>
        <time>2021-09-21T09:07:11Z</time>
      </trkpt>
      <trkpt lat="46.5205" lon="5.90276">
        <ele>905.8</ele>
        <time>2021-09-21T09:07:18Z</time>
      </trkpt>
      <trkpt lat="46.5205" lon="5.90278">
        <ele>905.95</ele>
        <time>2021-09-21T09:07:19Z</time>
      </trkpt>
      <trkpt lat="46.52051" lon="5.90279">
        <ele>905.9</ele>
        <time>2021-09-21T09:07:20Z</time>
      </trkpt>
      <trkpt lat="46.52051" lon="5.90281">
        <ele>906.03</ele>
        <time>2021-09-21T09:07:21Z</time>
      </trkpt>
      <trkpt lat="46.52052" lon="5.90282">
        <ele>906.16</ele>
        <time>2021-09-21T09:07:22Z</time>
      </trkpt>
      <trkpt lat="46.5206" lon="5.90297">
        <ele>906.7</ele>
        <time>2021-09-21T09:07:34Z</time>
      </trkpt>
      <trkpt lat="46.5207" lon="5.90306">
        <ele>908.07</ele>
        <time>2021-09-21T09:07:47Z</time>
      </trkpt>
      <trkpt lat="46.52082" lon="5.90311">
        <ele>908.7</ele>
        <time>2021-09-21T09:08:00Z</time>
      </trkpt>
      <trkpt lat="46.52097" lon="5.90315">
        <ele>908.94</ele>
        <time>2021-09-21T09:08:14Z</time>
      </trkpt>
      <trkpt lat="46.52098" lon="5.90316">
        <ele>909.32</ele>
        <time>2021-09-21T09:08:15Z</time>
      </trkpt>
      <trkpt lat="46.521" lon="5.90318">
        <ele>909.17</ele>
        <time>2021-09-21T09:08:18Z</time>
      </trkpt>
      <trkpt lat="46.52102" lon="5.90318">
        <ele>909.23</ele>
        <time>2021-09-21T09:08:19Z</time>
      </trkpt>
      <trkpt lat="46.52103" lon="5.90319">
        <ele>909.06</ele>
        <time>2021-09-21T09:08:20Z</time>
      </trkpt>
      <trkpt lat="46.52104" lon="5.90319">
        <ele>909.46</ele>
        <time>2021-09-21T09:08:21Z</time>
      </trkpt>
      <trkpt lat="46.52114" lon="5.90325">
        <ele>910.31</ele>
        <time>2021-09-21T09:08:31Z</time>
      </trkpt>
      <trkpt lat="46.52124" lon="5.90333">
        <ele>911.16</ele>
        <time>2021-09-21T09:08:41Z</time>
      </trkpt>
      <trkpt lat="46.52128" lon="5.90339">
        <ele>911.48</ele>
        <time>2021-09-21T09:08:46Z</time>
      </trkpt>
      <trkpt lat="46.52135" lon="5.90348">
        <ele>911.84</ele>
        <time>2021-09-21T09:08:56Z</time>
      </trkpt>
      <trkpt lat="46.52136" lon="5.9035">
        <ele>911.79</ele>
        <time>2021-09-21T09:08:58Z</time>
      </trkpt>
      <trkpt lat="46.52137" lon="5.90351">
        <ele>911.96</ele>
        <time>2021-09-21T09:08:59Z</time>
      </trkpt>
      <trkpt lat="46.52138" lon="5.90353">
        <ele>911.94</ele>
        <time>2021-09-21T09:09:00Z</time>
      </trkpt>
      <trkpt lat="46.52146" lon="5.90364">
        <ele>912.77</ele>
        <time>2021-09-21T09:09:11Z</time>
      </trkpt>
      <trkpt lat="46.52152" lon="5.90375">
        <ele>912.87</ele>
        <time>2021-09-21T09:09:20Z</time>
      </trkpt>
      <trkpt lat="46.52153" lon="5.90376">
        <ele>913.28</ele>
        <time>2021-09-21T09:09:21Z</time>
      </trkpt>
      <trkpt lat="46.5216" lon="5.90387">
        <ele>913.42</ele>
        <time>2021-09-21T09:09:31Z</time>
      </trkpt>
      <trkpt lat="46.52167" lon="5.90398">
        <ele>914.19</ele>
        <time>2021-09-21T09:09:41Z</time>
      </trkpt>
      <trkpt lat="46.52171" lon="5.90407">
        <ele>914.32</ele>
        <time>2021-09-21T09:09:48Z</time>
      </trkpt>
      <trkpt lat="46.52172" lon="5.90408">
        <ele>913.81</ele>
        <time>2021-09-21T09:09:49Z</time>
      </trkpt>
      <trkpt lat="46.52177" lon="5.90415">
        <ele>914.87</ele>
        <time>2021-09-21T09:09:56Z</time>
      </trkpt>
      <trkpt lat="46.52177" lon="5.90416">
        <ele>914.75</ele>
        <time>2021-09-21T09:09:57Z</time>
      </trkpt>
      <trkpt lat="46.52178" lon="5.90418">
        <ele>914.42</ele>
        <time>2021-09-21T09:09:58Z</time>
      </trkpt>
      <trkpt lat="46.52181" lon="5.90422">
        <ele>914.87</ele>
        <time>2021-09-21T09:10:02Z</time>
      </trkpt>
      <trkpt lat="46.52187" lon="5.90433">
        <ele>914.99</ele>
        <time>2021-09-21T09:10:12Z</time>
      </trkpt>
      <trkpt lat="46.52193" lon="5.90446">
        <ele>914.95</ele>
        <time>2021-09-21T09:10:22Z</time>
      </trkpt>
      <trkpt lat="46.52199" lon="5.90459">
        <ele>914.6</ele>
        <time>2021-09-21T09:10:31Z</time>
      </trkpt>
      <trkpt lat="46.52202" lon="5.90465">
        <ele>914.23</ele>
        <time>2021-09-21T09:10:36Z</time>
      </trkpt>
      <trkpt lat="46.52203" lon="5.90468">
        <ele>914.36</ele>
        <time>2021-09-21T09:10:38Z</time>
      </trkpt>
      <trkpt lat="46.52203" lon="5.90469">
        <ele>914.81</ele>
        <time>2021-09-21T09:10:39Z</time>
      </trkpt>
      <trkpt lat="46.52204" lon="5.9047">
        <ele>914.94</ele>
        <time>2021-09-21T09:10:40Z</time>
      </trkpt>
      <trkpt lat="46.52205" lon="5.90473">
        <ele>915.22</ele>
        <time>2021-09-21T09:10:42Z</time>
      </trkpt>
      <trkpt lat="46.52211" lon="5.90487">
        <ele>914.65</ele>
        <time>2021-09-21T09:10:53Z</time>
      </trkpt>
      <trkpt lat="46.52216" lon="5.90501">
        <ele>914.04</ele>
        <time>2021-09-21T09:11:04Z</time>
      </trkpt>
      <trkpt lat="46.52221" lon="5.90516">
        <ele>914.1</ele>
        <time>2021-09-21T09:11:16Z</time>
      </trkpt>
      <trkpt lat="46.52224" lon="5.90522">
        <ele>914.3</ele>
        <time>2021-09-21T09:11:21Z</time>
      </trkpt>
      <trkpt lat="46.52224" lon="5.90524">
        <ele>914.49</ele>
        <time>2021-09-21T09:11:22Z</time>
      </trkpt>
      <trkpt lat="46.52225" lon="5.90525">
        <ele>914.28</ele>
        <time>2021-09-21T09:11:23Z</time>
      </trkpt>
      <trkpt lat="46.52225" lon="5.90527">
        <ele>914.23</ele>
        <time>2021-09-21T09:11:24Z</time>
      </trkpt>
      <trkpt lat="46.52232" lon="5.9054">
        <ele>913.86</ele>
        <time>2021-09-21T09:11:34Z</time>
      </trkpt>
      <trkpt lat="46.52234" lon="5.90543">
        <ele>913.69</ele>
        <time>2021-09-21T09:11:37Z</time>
      </trkpt>
      <trkpt lat="46.52234" lon="5.90545">
        <ele>913.9</ele>
        <time>2021-09-21T09:11:38Z</time>
      </trkpt>
      <trkpt lat="46.52235" lon="5.90546">
        <ele>913.8</ele>
        <time>2021-09-21T09:11:39Z</time>
      </trkpt>
      <trkpt lat="46.52239" lon="5.90557">
        <ele>913.2</ele>
        <time>2021-09-21T09:11:47Z</time>
      </trkpt>
      <trkpt lat="46.5224" lon="5.90558">
        <ele>913.41</ele>
        <time>2021-09-21T09:11:48Z</time>
      </trkpt>
      <trkpt lat="46.52248" lon="5.90572">
        <ele>912.85</ele>
        <time>2021-09-21T09:12:00Z</time>
      </trkpt>
      <trkpt lat="46.52257" lon="5.90587">
        <ele>911.86</ele>
        <time>2021-09-21T09:12:12Z</time>
      </trkpt>
      <trkpt lat="46.52266" lon="5.90603">
        <ele>911.22</ele>
        <time>2021-09-21T09:12:25Z</time>
      </trkpt>
      <trkpt lat="46.52276" lon="5.90619">
        <ele>910.6</ele>
        <time>2021-09-21T09:12:38Z</time>
      </trkpt>
      <trkpt lat="46.52285" lon="5.90633">
        <ele>910.5</ele>
        <time>2021-09-21T09:12:50Z</time>
      </trkpt>
      <trkpt lat="46.52294" lon="5.90646">
        <ele>910.38</ele>
        <time>2021-09-21T09:13:01Z</time>
      </trkpt>
      <trkpt lat="46.52295" lon="5.90647">
        <ele>910.28</ele>
        <time>2021-09-21T09:13:02Z</time>
      </trkpt>
      <trkpt lat="46.52297" lon="5.90649">
        <ele>910.35</ele>
        <time>2021-09-21T09:13:04Z</time>
      </trkpt>
      <trkpt lat="46.52307" lon="5.9067">
        <ele>910.3</ele>
        <time>2021-09-21T09:13:18Z</time>
      </trkpt>
      <trkpt lat="46.52307" lon="5.9069">
        <ele>910.22</ele>
        <time>2021-09-21T09:13:30Z</time>
      </trkpt>
      <trkpt lat="46.52298" lon="5.90703">
        <ele>910.76</ele>
        <time>2021-09-21T09:13:43Z</time>
      </trkpt>
      <trkpt lat="46.52292" lon="5.90713">
        <ele>911.35</ele>
        <time>2021-09-21T09:13:52Z</time>
      </trkpt>
      <trkpt lat="46.52287" lon="5.90725">
        <ele>911.95</ele>
        <time>2021-09-21T09:14:03Z</time>
      </trkpt>
      <trkpt lat="46.52287" lon="5.90724">
        <ele>912.04</ele>
        <time>2021-09-21T09:14:21Z</time>
      </trkpt>
      <trkpt lat="46.52285" lon="5.90725">
        <ele>912.14</ele>
        <time>2021-09-21T09:14:42Z</time>
      </trkpt>
      <trkpt lat="46.52285" lon="5.90727">
        <ele>912.58</ele>
        <time>2021-09-21T09:14:58Z</time>
      </trkpt>
      <trkpt lat="46.52285" lon="5.9073">
        <ele>912.47</ele>
        <time>2021-09-21T09:15:14Z</time>
      </trkpt>
      <trkpt lat="46.52284" lon="5.90734">
        <ele>912.69</ele>
        <time>2021-09-21T09:15:27Z</time>
      </trkpt>
      <trkpt lat="46.52283" lon="5.90733">
        <ele>912.62</ele>
        <time>2021-09-21T09:15:51Z</time>
      </trkpt>
      <trkpt lat="46.52279" lon="5.90735">
        <ele>913.18</ele>
        <time>2021-09-21T09:16:11Z</time>
      </trkpt>
      <trkpt lat="46.52275" lon="5.90738">
        <ele>912.63</ele>
        <time>2021-09-21T09:16:16Z</time>
      </trkpt>
      <trkpt lat="46.52273" lon="5.90738">
        <ele>912.97</ele>
        <time>2021-09-21T09:16:17Z</time>
      </trkpt>
      <trkpt lat="46.5227" lon="5.9074">
        <ele>913.2</ele>
        <time>2021-09-21T09:16:26Z</time>
      </trkpt>
      <trkpt lat="46.5227" lon="5.90742">
        <ele>913.16</ele>
        <time>2021-09-21T09:16:53Z</time>
      </trkpt>
      <trkpt lat="46.5227" lon="5.90747">
        <ele>913.31</ele>
        <time>2021-09-21T09:17:12Z</time>
      </trkpt>
      <trkpt lat="46.52268" lon="5.90752">
        <ele>913.76</ele>
        <time>2021-09-21T09:17:29Z</time>
      </trkpt>
      <trkpt lat="46.52263" lon="5.90762">
        <ele>915.11</ele>
        <time>2021-09-21T09:17:43Z</time>
      </trkpt>
      <trkpt lat="46.52258" lon="5.90767">
        <ele>916.4</ele>
        <time>2021-09-21T09:17:58Z</time>
      </trkpt>
      <trkpt lat="46.52255" lon="5.90777">
        <ele>917.73</ele>
        <time>2021-09-21T09:18:15Z</time>
      </trkpt>
      <trkpt lat="46.52248" lon="5.90788">
        <ele>918.98</ele>
        <time>2021-09-21T09:18:31Z</time>
      </trkpt>
      <trkpt lat="46.52244" lon="5.90798">
        <ele>919.66</ele>
        <time>2021-09-21T09:18:45Z</time>
      </trkpt>
      <trkpt lat="46.52239" lon="5.90805">
        <ele>919.96</ele>
        <time>2021-09-21T09:18:58Z</time>
      </trkpt>
      <trkpt lat="46.52235" lon="5.90811">
        <ele>921.65</ele>
        <time>2021-09-21T09:19:16Z</time>
      </trkpt>
      <trkpt lat="46.5223" lon="5.90822">
        <ele>923.27</ele>
        <time>2021-09-21T09:19:34Z</time>
      </trkpt>
      <trkpt lat="46.52221" lon="5.90836">
        <ele>924.55</ele>
        <time>2021-09-21T09:19:50Z</time>
      </trkpt>
      <trkpt lat="46.52213" lon="5.9085">
        <ele>925.5</ele>
        <time>2021-09-21T09:20:07Z</time>
      </trkpt>
      <trkpt lat="46.52207" lon="5.90862">
        <ele>926.47</ele>
        <time>2021-09-21T09:20:22Z</time>
      </trkpt>
      <trkpt lat="46.52203" lon="5.90872">
        <ele>928.37</ele>
        <time>2021-09-21T09:20:37Z</time>
      </trkpt>
      <trkpt lat="46.52194" lon="5.90884">
        <ele>929.47</ele>
        <time>2021-09-21T09:20:53Z</time>
      </trkpt>
      <trkpt lat="46.52186" lon="5.90892">
        <ele>931.71</ele>
        <time>2021-09-21T09:21:06Z</time>
      </trkpt>
      <trkpt lat="46.52177" lon="5.90905">
        <ele>932.78</ele>
        <time>2021-09-21T09:21:24Z</time>
      </trkpt>
      <trkpt lat="46.52174" lon="5.90917">
        <ele>934.02</ele>
        <time>2021-09-21T09:21:36Z</time>
      </trkpt>
      <trkpt lat="46.52173" lon="5.90925">
        <ele>935.54</ele>
        <time>2021-09-21T09:21:46Z</time>
      </trkpt>
      <trkpt lat="46.52172" lon="5.90928">
        <ele>936.13</ele>
        <time>2021-09-21T09:21:49Z</time>
      </trkpt>
      <trkpt lat="46.52171" lon="5.90934">
        <ele>936.41</ele>
        <time>2021-09-21T09:21:55Z</time>
      </trkpt>
      <trkpt lat="46.52168" lon="5.90959">
        <ele>938.2</ele>
        <time>2021-09-21T09:22:15Z</time>
      </trkpt>
      <trkpt lat="46.52168" lon="5.90971">
        <ele>939.78</ele>
        <time>2021-09-21T09:22:29Z</time>
      </trkpt>
      <trkpt lat="46.52165" lon="5.90987">
        <ele>941.22</ele>
        <time>2021-09-21T09:22:46Z</time>
      </trkpt>
      <trkpt lat="46.52167" lon="5.90997">
        <ele>943.15</ele>
        <time>2021-09-21T09:23:00Z</time>
      </trkpt>
      <trkpt lat="46.52163" lon="5.91009">
        <ele>944.27</ele>
        <time>2021-09-21T09:23:14Z</time>
      </trkpt>
      <trkpt lat="46.52166" lon="5.91014">
        <ele>944.98</ele>
        <time>2021-09-21T09:23:20Z</time>
      </trkpt>
      <trkpt lat="46.52168" lon="5.91016">
        <ele>945.13</ele>
        <time>2021-09-21T09:23:24Z</time>
      </trkpt>
      <trkpt lat="46.52169" lon="5.91028">
        <ele>946.07</ele>
        <time>2021-09-21T09:23:36Z</time>
      </trkpt>
      <trkpt lat="46.5217" lon="5.91038">
        <ele>946.83</ele>
        <time>2021-09-21T09:23:48Z</time>
      </trkpt>
      <trkpt lat="46.5217" lon="5.91056">
        <ele>948.55</ele>
        <time>2021-09-21T09:24:03Z</time>
      </trkpt>
      <trkpt lat="46.52169" lon="5.91063">
        <ele>949.87</ele>
        <time>2021-09-21T09:24:14Z</time>
      </trkpt>
      <trkpt lat="46.52167" lon="5.91076">
        <ele>950.87</ele>
        <time>2021-09-21T09:24:30Z</time>
      </trkpt>
      <trkpt lat="46.52169" lon="5.91084">
        <ele>952.5</ele>
        <time>2021-09-21T09:24:41Z</time>
      </trkpt>
      <trkpt lat="46.52169" lon="5.91085">
        <ele>952.54</ele>
        <time>2021-09-21T09:24:43Z</time>
      </trkpt>
      <trkpt lat="46.52169" lon="5.91089">
        <ele>952.94</ele>
        <time>2021-09-21T09:24:48Z</time>
      </trkpt>
      <trkpt lat="46.52167" lon="5.91101">
        <ele>953.11</ele>
        <time>2021-09-21T09:25:07Z</time>
      </trkpt>
      <trkpt lat="46.52167" lon="5.9111">
        <ele>952.52</ele>
        <time>2021-09-21T09:25:21Z</time>
      </trkpt>
      <trkpt lat="46.52174" lon="5.91126">
        <ele>951.47</ele>
        <time>2021-09-21T09:25:36Z</time>
      </trkpt>
      <trkpt lat="46.52177" lon="5.91132">
        <ele>951.8</ele>
        <time>2021-09-21T09:25:51Z</time>
      </trkpt>
      <trkpt lat="46.52179" lon="5.91135">
        <ele>950.53</ele>
        <time>2021-09-21T09:26:07Z</time>
      </trkpt>
      <trkpt lat="46.52184" lon="5.9114">
        <ele>950.45</ele>
        <time>2021-09-21T09:26:23Z</time>
      </trkpt>
      <trkpt lat="46.52184" lon="5.91145">
        <ele>950.35</ele>
        <time>2021-09-21T09:26:39Z</time>
      </trkpt>
      <trkpt lat="46.52183" lon="5.91147">
        <ele>951.27</ele>
        <time>2021-09-21T09:26:56Z</time>
      </trkpt>
      <trkpt lat="46.52178" lon="5.91147">
        <ele>952.86</ele>
        <time>2021-09-21T09:27:10Z</time>
      </trkpt>
      <trkpt lat="46.52175" lon="5.9114">
        <ele>953.61</ele>
        <time>2021-09-21T09:27:25Z</time>
      </trkpt>
      <trkpt lat="46.52169" lon="5.91134">
        <ele>954.93</ele>
        <time>2021-09-21T09:27:40Z</time>
      </trkpt>
      <trkpt lat="46.52163" lon="5.91132">
        <ele>956.2</ele>
        <time>2021-09-21T09:27:56Z</time>
      </trkpt>
      <trkpt lat="46.52155" lon="5.91127">
        <ele>957.91</ele>
        <time>2021-09-21T09:28:14Z</time>
      </trkpt>
      <trkpt lat="46.52146" lon="5.91131">
        <ele>959.55</ele>
        <time>2021-09-21T09:28:26Z</time>
      </trkpt>
      <trkpt lat="46.52144" lon="5.91136">
        <ele>961.12</ele>
        <time>2021-09-21T09:28:42Z</time>
      </trkpt>
      <trkpt lat="46.5214" lon="5.91139">
        <ele>962.93</ele>
        <time>2021-09-21T09:28:58Z</time>
      </trkpt>
      <trkpt lat="46.52137" lon="5.91146">
        <ele>964.66</ele>
        <time>2021-09-21T09:29:13Z</time>
      </trkpt>
      <trkpt lat="46.52133" lon="5.9115">
        <ele>966.68</ele>
        <time>2021-09-21T09:29:27Z</time>
      </trkpt>
      <trkpt lat="46.52131" lon="5.91153">
        <ele>967.86</ele>
        <time>2021-09-21T09:29:42Z</time>
      </trkpt>
      <trkpt lat="46.52127" lon="5.91158">
        <ele>970.03</ele>
        <time>2021-09-21T09:29:57Z</time>
      </trkpt>
      <trkpt lat="46.52122" lon="5.91167">
        <ele>971.63</ele>
        <time>2021-09-21T09:30:13Z</time>
      </trkpt>
      <trkpt lat="46.52116" lon="5.91173">
        <ele>973.23</ele>
        <time>2021-09-21T09:30:30Z</time>
      </trkpt>
      <trkpt lat="46.52113" lon="5.91176">
        <ele>974.74</ele>
        <time>2021-09-21T09:30:48Z</time>
      </trkpt>
      <trkpt lat="46.52109" lon="5.91183">
        <ele>976.72</ele>
        <time>2021-09-21T09:31:03Z</time>
      </trkpt>
      <trkpt lat="46.52102" lon="5.91193">
        <ele>979.48</ele>
        <time>2021-09-21T09:31:20Z</time>
      </trkpt>
      <trkpt lat="46.52098" lon="5.91199">
        <ele>981.26</ele>
        <time>2021-09-21T09:31:37Z</time>
      </trkpt>
      <trkpt lat="46.52094" lon="5.91206">
        <ele>983.15</ele>
        <time>2021-09-21T09:31:51Z</time>
      </trkpt>
      <trkpt lat="46.52092" lon="5.91211">
        <ele>984.22</ele>
        <time>2021-09-21T09:32:03Z</time>
      </trkpt>
      <trkpt lat="46.52088" lon="5.91216">
        <ele>986.45</ele>
        <time>2021-09-21T09:32:19Z</time>
      </trkpt>
      <trkpt lat="46.52083" lon="5.91225">
        <ele>988.14</ele>
        <time>2021-09-21T09:32:33Z</time>
      </trkpt>
      <trkpt lat="46.52078" lon="5.91232">
        <ele>989.62</ele>
        <time>2021-09-21T09:32:50Z</time>
      </trkpt>
      <trkpt lat="46.52075" lon="5.91241">
        <ele>991.31</ele>
        <time>2021-09-21T09:33:07Z</time>
      </trkpt>
      <trkpt lat="46.52069" lon="5.91248">
        <ele>992.87</ele>
        <time>2021-09-21T09:33:23Z</time>
      </trkpt>
      <trkpt lat="46.52067" lon="5.91256">
        <ele>995.28</ele>
        <time>2021-09-21T09:33:38Z</time>
      </trkpt>
      <trkpt lat="46.52068" lon="5.91272">
        <ele>995.48</ele>
        <time>2021-09-21T09:33:52Z</time>
      </trkpt>
      <trkpt lat="46.52069" lon="5.91285">
        <ele>996.03</ele>
        <time>2021-09-21T09:34:06Z</time>
      </trkpt>
      <trkpt lat="46.52076" lon="5.91282">
        <ele>996.04</ele>
        <time>2021-09-21T09:34:21Z</time>
      </trkpt>
      <trkpt lat="46.5208" lon="5.91281">
        <ele>996.76</ele>
        <time>2021-09-21T09:34:34Z</time>
      </trkpt>
      <trkpt lat="46.52079" lon="5.91283">
        <ele>996.99</ele>
        <time>2021-09-21T09:34:58Z</time>
      </trkpt>
      <trkpt lat="46.52079" lon="5.91282">
        <ele>997.18</ele>
        <time>2021-09-21T09:35:19Z</time>
      </trkpt>
      <trkpt lat="46.52078" lon="5.91283">
        <ele>996.58</ele>
        <time>2021-09-21T09:35:39Z</time>
      </trkpt>
      <trkpt lat="46.52078" lon="5.91282">
        <ele>996.83</ele>
        <time>2021-09-21T09:35:56Z</time>
      </trkpt>
      <trkpt lat="46.52081" lon="5.91279">
        <ele>996.79</ele>
        <time>2021-09-21T09:36:10Z</time>
      </trkpt>
      <trkpt lat="46.52081" lon="5.91279">
        <ele>997.46</ele>
        <time>2021-09-21T09:36:24Z</time>
      </trkpt>
      <trkpt lat="46.52081" lon="5.91279">
        <ele>997.77</ele>
        <time>2021-09-21T09:36:43Z</time>
      </trkpt>
      <trkpt lat="46.5208" lon="5.9128">
        <ele>996.74</ele>
        <time>2021-09-21T09:36:56Z</time>
      </trkpt>
      <trkpt lat="46.52076" lon="5.91283">
        <ele>997.33</ele>
        <time>2021-09-21T09:37:12Z</time>
      </trkpt>
      <trkpt lat="46.52069" lon="5.91289">
        <ele>997.17</ele>
        <time>2021-09-21T09:37:27Z</time>
      </trkpt>
      <trkpt lat="46.52069" lon="5.91291">
        <ele>997.19</ele>
        <time>2021-09-21T09:37:52Z</time>
      </trkpt>
      <trkpt lat="46.52069" lon="5.91292">
        <ele>997.15</ele>
        <time>2021-09-21T09:38:08Z</time>
      </trkpt>
      <trkpt lat="46.52071" lon="5.91289">
        <ele>996.87</ele>
        <time>2021-09-21T09:38:25Z</time>
      </trkpt>
      <trkpt lat="46.52071" lon="5.91286">
        <ele>996.86</ele>
        <time>2021-09-21T09:38:45Z</time>
      </trkpt>
      <trkpt lat="46.52071" lon="5.91283">
        <ele>996.7</ele>
        <time>2021-09-21T09:39:03Z</time>
      </trkpt>
      <trkpt lat="46.52069" lon="5.91282">
        <ele>996.55</ele>
        <time>2021-09-21T09:39:29Z</time>
      </trkpt>
      <trkpt lat="46.52069" lon="5.91287">
        <ele>997.04</ele>
        <time>2021-09-21T09:39:52Z</time>
      </trkpt>
      <trkpt lat="46.52069" lon="5.91284">
        <ele>997.11</ele>
        <time>2021-09-21T09:40:13Z</time>
      </trkpt>
      <trkpt lat="46.5207" lon="5.91285">
        <ele>996.91</ele>
        <time>2021-09-21T09:40:33Z</time>
      </trkpt>
      <trkpt lat="46.52071" lon="5.91287">
        <ele>996.81</ele>
        <time>2021-09-21T09:40:54Z</time>
      </trkpt>
      <trkpt lat="46.52071" lon="5.91286">
        <ele>996.63</ele>
        <time>2021-09-21T09:41:11Z</time>
      </trkpt>
      <trkpt lat="46.5207" lon="5.91284">
        <ele>996.69</ele>
        <time>2021-09-21T09:41:34Z</time>
      </trkpt>
      <trkpt lat="46.52069" lon="5.91283">
        <ele>996.6</ele>
        <time>2021-09-21T09:41:58Z</time>
      </trkpt>
      <trkpt lat="46.5207" lon="5.91281">
        <ele>997.42</ele>
        <time>2021-09-21T09:42:18Z</time>
      </trkpt>
      <trkpt lat="46.52068" lon="5.91292">
        <ele>997.86</ele>
        <time>2021-09-21T09:42:35Z</time>
      </trkpt>
      <trkpt lat="46.52069" lon="5.91306">
        <ele>998.9</ele>
        <time>2021-09-21T09:42:50Z</time>
      </trkpt>
      <trkpt lat="46.52067" lon="5.91318">
        <ele>999.11</ele>
        <time>2021-09-21T09:43:06Z</time>
      </trkpt>
      <trkpt lat="46.52064" lon="5.91317">
        <ele>999.46</ele>
        <time>2021-09-21T09:43:22Z</time>
      </trkpt>
      <trkpt lat="46.52059" lon="5.91325">
        <ele>999.49</ele>
        <time>2021-09-21T09:43:35Z</time>
      </trkpt>
      <trkpt lat="46.5206" lon="5.91332">
        <ele>999.67</ele>
        <time>2021-09-21T09:43:49Z</time>
      </trkpt>
      <trkpt lat="46.52061" lon="5.91342">
        <ele>999.81</ele>
        <time>2021-09-21T09:44:07Z</time>
      </trkpt>
      <trkpt lat="46.52062" lon="5.91343">
        <ele>999.75</ele>
        <time>2021-09-21T09:44:20Z</time>
      </trkpt>
      <trkpt lat="46.52063" lon="5.91341">
        <ele>1000.08</ele>
        <time>2021-09-21T09:44:40Z</time>
      </trkpt>
      <trkpt lat="46.52069" lon="5.91349">
        <ele>999.66</ele>
        <time>2021-09-21T09:44:55Z</time>
      </trkpt>
      <trkpt lat="46.52076" lon="5.91357">
        <ele>1000.65</ele>
        <time>2021-09-21T09:45:12Z</time>
      </trkpt>
      <trkpt lat="46.52084" lon="5.91364">
        <ele>1000.47</ele>
        <time>2021-09-21T09:45:29Z</time>
      </trkpt>
      <trkpt lat="46.52092" lon="5.9137">
        <ele>998.11</ele>
        <time>2021-09-21T09:45:47Z</time>
      </trkpt>
      <trkpt lat="46.52101" lon="5.91382">
        <ele>998.48</ele>
        <time>2021-09-21T09:46:04Z</time>
      </trkpt>
      <trkpt lat="46.52107" lon="5.91389">
        <ele>998.39</ele>
        <time>2021-09-21T09:46:11Z</time>
      </trkpt>
      <trkpt lat="46.52121" lon="5.91403">
        <ele>996.46</ele>
        <time>2021-09-21T09:46:28Z</time>
      </trkpt>
      <trkpt lat="46.52131" lon="5.91417">
        <ele>995.58</ele>
        <time>2021-09-21T09:46:44Z</time>
      </trkpt>
      <trkpt lat="46.52136" lon="5.91432">
        <ele>995.98</ele>
        <time>2021-09-21T09:46:58Z</time>
      </trkpt>
      <trkpt lat="46.52143" lon="5.91448">
        <ele>996.53</ele>
        <time>2021-09-21T09:47:18Z</time>
      </trkpt>
      <trkpt lat="46.52148" lon="5.91476">
        <ele>997.47</ele>
        <time>2021-09-21T09:47:38Z</time>
      </trkpt>
      <trkpt lat="46.52158" lon="5.91491">
        <ele>997.61</ele>
        <time>2021-09-21T09:47:54Z</time>
      </trkpt>
      <trkpt lat="46.5217" lon="5.91508">
        <ele>996.91</ele>
        <time>2021-09-21T09:48:11Z</time>
      </trkpt>
      <trkpt lat="46.52177" lon="5.91526">
        <ele>996.99</ele>
        <time>2021-09-21T09:48:29Z</time>
      </trkpt>
      <trkpt lat="46.52188" lon="5.91541">
        <ele>997.63</ele>
        <time>2021-09-21T09:48:44Z</time>
      </trkpt>
      <trkpt lat="46.52196" lon="5.91561">
        <ele>998.94</ele>
        <time>2021-09-21T09:49:03Z</time>
      </trkpt>
      <trkpt lat="46.52203" lon="5.91572">
        <ele>999.71</ele>
        <time>2021-09-21T09:49:13Z</time>
      </trkpt>
      <trkpt lat="46.52216" lon="5.91586">
        <ele>1000.13</ele>
        <time>2021-09-21T09:49:34Z</time>
      </trkpt>
      <trkpt lat="46.52226" lon="5.91593">
        <ele>1000.22</ele>
        <time>2021-09-21T09:49:48Z</time>
      </trkpt>
      <trkpt lat="46.52234" lon="5.91603">
        <ele>1002.02</ele>
        <time>2021-09-21T09:50:05Z</time>
      </trkpt>
      <trkpt lat="46.52244" lon="5.91617">
        <ele>1003.55</ele>
        <time>2021-09-21T09:50:21Z</time>
      </trkpt>
      <trkpt lat="46.52249" lon="5.91628">
        <ele>1004.35</ele>
        <time>2021-09-21T09:50:36Z</time>
      </trkpt>
      <trkpt lat="46.52257" lon="5.91633">
        <ele>1005.62</ele>
        <time>2021-09-21T09:50:48Z</time>
      </trkpt>
      <trkpt lat="46.52268" lon="5.91643">
        <ele>1007.53</ele>
        <time>2021-09-21T09:51:03Z</time>
      </trkpt>
      <trkpt lat="46.52278" lon="5.91654">
        <ele>1008.02</ele>
        <time>2021-09-21T09:51:18Z</time>
      </trkpt>
      <trkpt lat="46.52284" lon="5.91664">
        <ele>1009.27</ele>
        <time>2021-09-21T09:51:34Z</time>
      </trkpt>
      <trkpt lat="46.52287" lon="5.91668">
        <ele>1010.7</ele>
        <time>2021-09-21T09:51:38Z</time>
      </trkpt>
      <trkpt lat="46.52299" lon="5.91682">
        <ele>1011.41</ele>
        <time>2021-09-21T09:51:55Z</time>
      </trkpt>
      <trkpt lat="46.52308" lon="5.91697">
        <ele>1012.77</ele>
        <time>2021-09-21T09:52:10Z</time>
      </trkpt>
      <trkpt lat="46.52318" lon="5.91709">
        <ele>1012.46</ele>
        <time>2021-09-21T09:52:24Z</time>
      </trkpt>
      <trkpt lat="46.5233" lon="5.9172">
        <ele>1011.4</ele>
        <time>2021-09-21T09:52:39Z</time>
      </trkpt>
      <trkpt lat="46.52342" lon="5.91729">
        <ele>1010.1</ele>
        <time>2021-09-21T09:52:54Z</time>
      </trkpt>
      <trkpt lat="46.52357" lon="5.91745">
        <ele>1010.12</ele>
        <time>2021-09-21T09:53:12Z</time>
      </trkpt>
      <trkpt lat="46.52368" lon="5.91761">
        <ele>1009.37</ele>
        <time>2021-09-21T09:53:29Z</time>
      </trkpt>
      <trkpt lat="46.52377" lon="5.91773">
        <ele>1008.27</ele>
        <time>2021-09-21T09:53:43Z</time>
      </trkpt>
      <trkpt lat="46.52393" lon="5.91791">
        <ele>1009.13</ele>
        <time>2021-09-21T09:54:01Z</time>
      </trkpt>
      <trkpt lat="46.52399" lon="5.9181">
        <ele>1007.91</ele>
        <time>2021-09-21T09:54:18Z</time>
      </trkpt>
      <trkpt lat="46.52411" lon="5.91823">
        <ele>1006.38</ele>
        <time>2021-09-21T09:54:36Z</time>
      </trkpt>
      <trkpt lat="46.52416" lon="5.9184">
        <ele>1007.18</ele>
        <time>2021-09-21T09:54:51Z</time>
      </trkpt>
      <trkpt lat="46.52426" lon="5.91858">
        <ele>1007.81</ele>
        <time>2021-09-21T09:55:09Z</time>
      </trkpt>
      <trkpt lat="46.5244" lon="5.91876">
        <ele>1007.44</ele>
        <time>2021-09-21T09:55:25Z</time>
      </trkpt>
      <trkpt lat="46.52445" lon="5.91882">
        <ele>1007.09</ele>
        <time>2021-09-21T09:55:33Z</time>
      </trkpt>
      <trkpt lat="46.52453" lon="5.91897">
        <ele>1007.35</ele>
        <time>2021-09-21T09:55:44Z</time>
      </trkpt>
      <trkpt lat="46.52457" lon="5.91913">
        <ele>1009.12</ele>
        <time>2021-09-21T09:56:03Z</time>
      </trkpt>
      <trkpt lat="46.52463" lon="5.91925">
        <ele>1010.14</ele>
        <time>2021-09-21T09:56:22Z</time>
      </trkpt>
      <trkpt lat="46.52479" lon="5.91944">
        <ele>1010.66</ele>
        <time>2021-09-21T09:56:39Z</time>
      </trkpt>
      <trkpt lat="46.52489" lon="5.9196">
        <ele>1009.43</ele>
        <time>2021-09-21T09:56:55Z</time>
      </trkpt>
      <trkpt lat="46.52497" lon="5.91974">
        <ele>1008.11</ele>
        <time>2021-09-21T09:57:11Z</time>
      </trkpt>
      <trkpt lat="46.52507" lon="5.91993">
        <ele>1007.75</ele>
        <time>2021-09-21T09:57:27Z</time>
      </trkpt>
      <trkpt lat="46.52518" lon="5.92011">
        <ele>1008.88</ele>
        <time>2021-09-21T09:57:47Z</time>
      </trkpt>
      <trkpt lat="46.5253" lon="5.92033">
        <ele>1007.6</ele>
        <time>2021-09-21T09:58:07Z</time>
      </trkpt>
      <trkpt lat="46.5254" lon="5.92055">
        <ele>1008.39</ele>
        <time>2021-09-21T09:58:25Z</time>
      </trkpt>
      <trkpt lat="46.52545" lon="5.92072">
        <ele>1009.05</ele>
        <time>2021-09-21T09:58:40Z</time>
      </trkpt>
      <trkpt lat="46.52551" lon="5.92086">
        <ele>1009.55</ele>
        <time>2021-09-21T09:58:56Z</time>
      </trkpt>
      <trkpt lat="46.52563" lon="5.92107">
        <ele>1010.15</ele>
        <time>2021-09-21T09:59:14Z</time>
      </trkpt>
      <trkpt lat="46.52572" lon="5.92129">
        <ele>1011.13</ele>
        <time>2021-09-21T09:59:31Z</time>
      </trkpt>
      <trkpt lat="46.52581" lon="5.92148">
        <ele>1012.15</ele>
        <time>2021-09-21T09:59:49Z</time>
      </trkpt>
      <trkpt lat="46.52591" lon="5.92163">
        <ele>1014.31</ele>
        <time>2021-09-21T10:00:06Z</time>
      </trkpt>
      <trkpt lat="46.52593" lon="5.92166">
        <ele>1013.93</ele>
        <time>2021-09-21T10:00:09Z</time>
      </trkpt>
      <trkpt lat="46.52599" lon="5.92186">
        <ele>1015.67</ele>
        <time>2021-09-21T10:00:30Z</time>
      </trkpt>
      <trkpt lat="46.52599" lon="5.92187">
        <ele>1015.25</ele>
        <time>2021-09-21T10:00:31Z</time>
      </trkpt>
      <trkpt lat="46.52601" lon="5.92193">
        <ele>1015.69</ele>
        <time>2021-09-21T10:00:40Z</time>
      </trkpt>
      <trkpt lat="46.52604" lon="5.92197">
        <ele>1016.26</ele>
        <time>2021-09-21T10:00:50Z</time>
      </trkpt>
      <trkpt lat="46.52612" lon="5.92216">
        <ele>1016.8</ele>
        <time>2021-09-21T10:01:09Z</time>
      </trkpt>
      <trkpt lat="46.52625" lon="5.92233">
        <ele>1016.06</ele>
        <time>2021-09-21T10:01:24Z</time>
      </trkpt>
      <trkpt lat="46.5263" lon="5.92263">
        <ele>1017.91</ele>
        <time>2021-09-21T10:01:38Z</time>
      </trkpt>
      <trkpt lat="46.52633" lon="5.92275">
        <ele>1018.8</ele>
        <time>2021-09-21T10:01:55Z</time>
      </trkpt>
      <trkpt lat="46.52639" lon="5.9229">
        <ele>1019.94</ele>
        <time>2021-09-21T10:02:09Z</time>
      </trkpt>
      <trkpt lat="46.52644" lon="5.92294">
        <ele>1020.35</ele>
        <time>2021-09-21T10:02:17Z</time>
      </trkpt>
      <trkpt lat="46.52653" lon="5.92317">
        <ele>1021.79</ele>
        <time>2021-09-21T10:02:34Z</time>
      </trkpt>
      <trkpt lat="46.52654" lon="5.9234">
        <ele>1021.23</ele>
        <time>2021-09-21T10:02:47Z</time>
      </trkpt>
      <trkpt lat="46.52654" lon="5.92356">
        <ele>1019.32</ele>
        <time>2021-09-21T10:02:57Z</time>
      </trkpt>
      <trkpt lat="46.52657" lon="5.92362">
        <ele>1019.46</ele>
        <time>2021-09-21T10:03:08Z</time>
      </trkpt>
      <trkpt lat="46.5266" lon="5.92372">
        <ele>1019.08</ele>
        <time>2021-09-21T10:03:24Z</time>
      </trkpt>
      <trkpt lat="46.52671" lon="5.92379">
        <ele>1018.68</ele>
        <time>2021-09-21T10:03:38Z</time>
      </trkpt>
      <trkpt lat="46.52674" lon="5.92385">
        <ele>1020.14</ele>
        <time>2021-09-21T10:03:43Z</time>
      </trkpt>
      <trkpt lat="46.52677" lon="5.9239">
        <ele>1020.14</ele>
        <time>2021-09-21T10:03:48Z</time>
      </trkpt>
      <trkpt lat="46.52684" lon="5.92387">
        <ele>1020.49</ele>
        <time>2021-09-21T10:03:57Z</time>
      </trkpt>
      <trkpt lat="46.52689" lon="5.92377">
        <ele>1019.16</ele>
        <time>2021-09-21T10:04:08Z</time>
      </trkpt>
      <trkpt lat="46.52691" lon="5.92371">
        <ele>1019.2</ele>
        <time>2021-09-21T10:04:12Z</time>
      </trkpt>
      <trkpt lat="46.52696" lon="5.92362">
        <ele>1016.87</ele>
        <time>2021-09-21T10:04:21Z</time>
      </trkpt>
      <trkpt lat="46.52697" lon="5.92362">
        <ele>1016.95</ele>
        <time>2021-09-21T10:04:22Z</time>
      </trkpt>
      <trkpt lat="46.52704" lon="5.92351">
        <ele>1015.28</ele>
        <time>2021-09-21T10:04:37Z</time>
      </trkpt>
      <trkpt lat="46.52714" lon="5.92344">
        <ele>1013.61</ele>
        <time>2021-09-21T10:04:52Z</time>
      </trkpt>
      <trkpt lat="46.52715" lon="5.92338">
        <ele>1011.83</ele>
        <time>2021-09-21T10:05:03Z</time>
      </trkpt>
      <trkpt lat="46.52715" lon="5.92335">
        <ele>1011.69</ele>
        <time>2021-09-21T10:05:17Z</time>
      </trkpt>
      <trkpt lat="46.52715" lon="5.92331">
        <ele>1008.64</ele>
        <time>2021-09-21T10:05:31Z</time>
      </trkpt>
      <trkpt lat="46.52717" lon="5.92316">
        <ele>1005.87</ele>
        <time>2021-09-21T10:05:47Z</time>
      </trkpt>
      <trkpt lat="46.52721" lon="5.92302">
        <ele>1004.59</ele>
        <time>2021-09-21T10:06:04Z</time>
      </trkpt>
      <trkpt lat="46.52722" lon="5.92293">
        <ele>1003.94</ele>
        <time>2021-09-21T10:06:21Z</time>
      </trkpt>
      <trkpt lat="46.52729" lon="5.92285">
        <ele>1001.49</ele>
        <time>2021-09-21T10:06:36Z</time>
      </trkpt>
      <trkpt lat="46.52737" lon="5.92269">
        <ele>998.59</ele>
        <time>2021-09-21T10:06:53Z</time>
      </trkpt>
      <trkpt lat="46.52745" lon="5.92259">
        <ele>997.58</ele>
        <time>2021-09-21T10:07:10Z</time>
      </trkpt>
      <trkpt lat="46.52756" lon="5.9225">
        <ele>996.05</ele>
        <time>2021-09-21T10:07:23Z</time>
      </trkpt>
      <trkpt lat="46.52771" lon="5.92233">
        <ele>994.1</ele>
        <time>2021-09-21T10:07:41Z</time>
      </trkpt>
      <trkpt lat="46.52778" lon="5.92224">
        <ele>993.98</ele>
        <time>2021-09-21T10:07:56Z</time>
      </trkpt>
      <trkpt lat="46.52792" lon="5.92216">
        <ele>993.66</ele>
        <time>2021-09-21T10:08:13Z</time>
      </trkpt>
      <trkpt lat="46.52809" lon="5.92206">
        <ele>992.07</ele>
        <time>2021-09-21T10:08:30Z</time>
      </trkpt>
      <trkpt lat="46.52826" lon="5.92198">
        <ele>989.98</ele>
        <time>2021-09-21T10:08:48Z</time>
      </trkpt>
      <trkpt lat="46.52838" lon="5.9219">
        <ele>986.72</ele>
        <time>2021-09-21T10:09:05Z</time>
      </trkpt>
      <trkpt lat="46.52856" lon="5.92185">
        <ele>984.27</ele>
        <time>2021-09-21T10:09:22Z</time>
      </trkpt>
      <trkpt lat="46.5287" lon="5.92181">
        <ele>981.34</ele>
        <time>2021-09-21T10:09:39Z</time>
      </trkpt>
      <trkpt lat="46.52874" lon="5.92181">
        <ele>980.64</ele>
        <time>2021-09-21T10:09:45Z</time>
      </trkpt>
      <trkpt lat="46.5289" lon="5.92183">
        <ele>977.55</ele>
        <time>2021-09-21T10:10:01Z</time>
      </trkpt>
      <trkpt lat="46.52907" lon="5.92185">
        <ele>974.86</ele>
        <time>2021-09-21T10:10:19Z</time>
      </trkpt>
      <trkpt lat="46.52917" lon="5.92187">
        <ele>971.59</ele>
        <time>2021-09-21T10:10:33Z</time>
      </trkpt>
      <trkpt lat="46.5294" lon="5.92198">
        <ele>969.64</ele>
        <time>2021-09-21T10:10:48Z</time>
      </trkpt>
      <trkpt lat="46.52957" lon="5.92202">
        <ele>966.5</ele>
        <time>2021-09-21T10:11:07Z</time>
      </trkpt>
      <trkpt lat="46.52973" lon="5.92207">
        <ele>964.76</ele>
        <time>2021-09-21T10:11:24Z</time>
      </trkpt>
      <trkpt lat="46.52987" lon="5.92211">
        <ele>961.61</ele>
        <time>2021-09-21T10:11:42Z</time>
      </trkpt>
      <trkpt lat="46.53002" lon="5.92214">
        <ele>958.69</ele>
        <time>2021-09-21T10:12:00Z</time>
      </trkpt>
      <trkpt lat="46.53017" lon="5.92211">
        <ele>955.44</ele>
        <time>2021-09-21T10:12:13Z</time>
      </trkpt>
      <trkpt lat="46.53034" lon="5.92204">
        <ele>952.26</ele>
        <time>2021-09-21T10:12:29Z</time>
      </trkpt>
      <trkpt lat="46.53045" lon="5.92198">
        <ele>948.88</ele>
        <time>2021-09-21T10:12:44Z</time>
      </trkpt>
      <trkpt lat="46.5306" lon="5.92197">
        <ele>945.66</ele>
        <time>2021-09-21T10:13:00Z</time>
      </trkpt>
      <trkpt lat="46.53076" lon="5.92199">
        <ele>942.54</ele>
        <time>2021-09-21T10:13:16Z</time>
      </trkpt>
      <trkpt lat="46.53086" lon="5.922">
        <ele>939.28</ele>
        <time>2021-09-21T10:13:28Z</time>
      </trkpt>
      <trkpt lat="46.53105" lon="5.92196">
        <ele>936.55</ele>
        <time>2021-09-21T10:13:43Z</time>
      </trkpt>
      <trkpt lat="46.53116" lon="5.92195">
        <ele>934.54</ele>
        <time>2021-09-21T10:13:55Z</time>
      </trkpt>
      <trkpt lat="46.53122" lon="5.92192">
        <ele>932.83</ele>
        <time>2021-09-21T10:14:02Z</time>
      </trkpt>
      <trkpt lat="46.53136" lon="5.92188">
        <ele>930.28</ele>
        <time>2021-09-21T10:14:17Z</time>
      </trkpt>
      <trkpt lat="46.53147" lon="5.92186">
        <ele>928.47</ele>
        <time>2021-09-21T10:14:34Z</time>
      </trkpt>
      <trkpt lat="46.53148" lon="5.92186">
        <ele>928.79</ele>
        <time>2021-09-21T10:14:35Z</time>
      </trkpt>
      <trkpt lat="46.53154" lon="5.92192">
        <ele>927.79</ele>
        <time>2021-09-21T10:14:46Z</time>
      </trkpt>
      <trkpt lat="46.53155" lon="5.9219">
        <ele>927.86</ele>
        <time>2021-09-21T10:15:01Z</time>
      </trkpt>
      <trkpt lat="46.53157" lon="5.92191">
        <ele>927.4</ele>
        <time>2021-09-21T10:15:26Z</time>
      </trkpt>
      <trkpt lat="46.5316" lon="5.9219">
        <ele>927.48</ele>
        <time>2021-09-21T10:15:46Z</time>
      </trkpt>
      <trkpt lat="46.53161" lon="5.92191">
        <ele>927.66</ele>
        <time>2021-09-21T10:16:05Z</time>
      </trkpt>
      <trkpt lat="46.53165" lon="5.9219">
        <ele>927.02</ele>
        <time>2021-09-21T10:16:26Z</time>
      </trkpt>
      <trkpt lat="46.53169" lon="5.92188">
        <ele>926.32</ele>
        <time>2021-09-21T10:16:38Z</time>
      </trkpt>
      <trkpt lat="46.5317" lon="5.92189">
        <ele>926.73</ele>
        <time>2021-09-21T10:17:03Z</time>
      </trkpt>
      <trkpt lat="46.53175" lon="5.92191">
        <ele>925</ele>
        <time>2021-09-21T10:17:17Z</time>
      </trkpt>
      <trkpt lat="46.53179" lon="5.92193">
        <ele>924.68</ele>
        <time>2021-09-21T10:17:27Z</time>
      </trkpt>
      <trkpt lat="46.53181" lon="5.92193">
        <ele>924.53</ele>
        <time>2021-09-21T10:17:30Z</time>
      </trkpt>
      <trkpt lat="46.53186" lon="5.92194">
        <ele>924.11</ele>
        <time>2021-09-21T10:17:39Z</time>
      </trkpt>
      <trkpt lat="46.53189" lon="5.92195">
        <ele>923.15</ele>
        <time>2021-09-21T10:17:41Z</time>
      </trkpt>
      <trkpt lat="46.53203" lon="5.92202">
        <ele>920.34</ele>
        <time>2021-09-21T10:17:54Z</time>
      </trkpt>
      <trkpt lat="46.53205" lon="5.92204">
        <ele>919.32</ele>
        <time>2021-09-21T10:17:56Z</time>
      </trkpt>
      <trkpt lat="46.53207" lon="5.92205">
        <ele>919.62</ele>
        <time>2021-09-21T10:17:58Z</time>
      </trkpt>
      <trkpt lat="46.53215" lon="5.92208">
        <ele>918.88</ele>
        <time>2021-09-21T10:18:05Z</time>
      </trkpt>
      <trkpt lat="46.53224" lon="5.92208">
        <ele>916.54</ele>
        <time>2021-09-21T10:18:14Z</time>
      </trkpt>
      <trkpt lat="46.53227" lon="5.92208">
        <ele>915.86</ele>
        <time>2021-09-21T10:18:18Z</time>
      </trkpt>
      <trkpt lat="46.53237" lon="5.92208">
        <ele>913.64</ele>
        <time>2021-09-21T10:18:28Z</time>
      </trkpt>
      <trkpt lat="46.5324" lon="5.92209">
        <ele>912.45</ele>
        <time>2021-09-21T10:18:33Z</time>
      </trkpt>
      <trkpt lat="46.53248" lon="5.92212">
        <ele>910.81</ele>
        <time>2021-09-21T10:18:42Z</time>
      </trkpt>
      <trkpt lat="46.53253" lon="5.92215">
        <ele>909.87</ele>
        <time>2021-09-21T10:18:49Z</time>
      </trkpt>
      <trkpt lat="46.5326" lon="5.92224">
        <ele>908.49</ele>
        <time>2021-09-21T10:19:01Z</time>
      </trkpt>
      <trkpt lat="46.53265" lon="5.92231">
        <ele>906.9</ele>
        <time>2021-09-21T10:19:13Z</time>
      </trkpt>
      <trkpt lat="46.53269" lon="5.9224">
        <ele>905.9</ele>
        <time>2021-09-21T10:19:21Z</time>
      </trkpt>
      <trkpt lat="46.53275" lon="5.92255">
        <ele>904.23</ele>
        <time>2021-09-21T10:19:33Z</time>
      </trkpt>
      <trkpt lat="46.53282" lon="5.92267">
        <ele>904.07</ele>
        <time>2021-09-21T10:19:47Z</time>
      </trkpt>
      <trkpt lat="46.53291" lon="5.92274">
        <ele>903.61</ele>
        <time>2021-09-21T10:20:00Z</time>
      </trkpt>
      <trkpt lat="46.53295" lon="5.92274">
        <ele>903.17</ele>
        <time>2021-09-21T10:20:04Z</time>
      </trkpt>
      <trkpt lat="46.53308" lon="5.92266">
        <ele>902.66</ele>
        <time>2021-09-21T10:20:18Z</time>
      </trkpt>
      <trkpt lat="46.53316" lon="5.92258">
        <ele>902.47</ele>
        <time>2021-09-21T10:20:28Z</time>
      </trkpt>
      <trkpt lat="46.53322" lon="5.92251">
        <ele>901.76</ele>
        <time>2021-09-21T10:20:42Z</time>
      </trkpt>
      <trkpt lat="46.53326" lon="5.92246">
        <ele>900.99</ele>
        <time>2021-09-21T10:20:55Z</time>
      </trkpt>
      <trkpt lat="46.53333" lon="5.92243">
        <ele>899.49</ele>
        <time>2021-09-21T10:21:07Z</time>
      </trkpt>
      <trkpt lat="46.53338" lon="5.92241">
        <ele>897.68</ele>
        <time>2021-09-21T10:21:18Z</time>
      </trkpt>
      <trkpt lat="46.53344" lon="5.92241">
        <ele>896.68</ele>
        <time>2021-09-21T10:21:28Z</time>
      </trkpt>
      <trkpt lat="46.53356" lon="5.92241">
        <ele>893.72</ele>
        <time>2021-09-21T10:21:40Z</time>
      </trkpt>
      <trkpt lat="46.53365" lon="5.92241">
        <ele>892.73</ele>
        <time>2021-09-21T10:21:49Z</time>
      </trkpt>
      <trkpt lat="46.53371" lon="5.92242">
        <ele>891.22</ele>
        <time>2021-09-21T10:21:58Z</time>
      </trkpt>
      <trkpt lat="46.53375" lon="5.92243">
        <ele>890.41</ele>
        <time>2021-09-21T10:22:04Z</time>
      </trkpt>
      <trkpt lat="46.53385" lon="5.92245">
        <ele>888.54</ele>
        <time>2021-09-21T10:22:15Z</time>
      </trkpt>
      <trkpt lat="46.5339" lon="5.92246">
        <ele>887.47</ele>
        <time>2021-09-21T10:22:21Z</time>
      </trkpt>
      <trkpt lat="46.53394" lon="5.92247">
        <ele>886.33</ele>
        <time>2021-09-21T10:22:25Z</time>
      </trkpt>
      <trkpt lat="46.53404" lon="5.92251">
        <ele>885.08</ele>
        <time>2021-09-21T10:22:36Z</time>
      </trkpt>
      <trkpt lat="46.53414" lon="5.92251">
        <ele>883.21</ele>
        <time>2021-09-21T10:22:45Z</time>
      </trkpt>
      <trkpt lat="46.53421" lon="5.92253">
        <ele>882.99</ele>
        <time>2021-09-21T10:22:54Z</time>
      </trkpt>
      <trkpt lat="46.53424" lon="5.92252">
        <ele>882.46</ele>
        <time>2021-09-21T10:23:04Z</time>
      </trkpt>
      <trkpt lat="46.53424" lon="5.92253">
        <ele>882.32</ele>
        <time>2021-09-21T10:23:24Z</time>
      </trkpt>
      <trkpt lat="46.53426" lon="5.92252">
        <ele>882.52</ele>
        <time>2021-09-21T10:23:36Z</time>
      </trkpt>
      <trkpt lat="46.53429" lon="5.92246">
        <ele>881.8</ele>
        <time>2021-09-21T10:23:54Z</time>
      </trkpt>
      <trkpt lat="46.53435" lon="5.92237">
        <ele>880.36</ele>
        <time>2021-09-21T10:24:04Z</time>
      </trkpt>
      <trkpt lat="46.53438" lon="5.92233">
        <ele>879.84</ele>
        <time>2021-09-21T10:24:08Z</time>
      </trkpt>
      <trkpt lat="46.53446" lon="5.92223">
        <ele>879.1</ele>
        <time>2021-09-21T10:24:19Z</time>
      </trkpt>
      <trkpt lat="46.5345" lon="5.92216">
        <ele>878.52</ele>
        <time>2021-09-21T10:24:25Z</time>
      </trkpt>
      <trkpt lat="46.53456" lon="5.92204">
        <ele>876.75</ele>
        <time>2021-09-21T10:24:39Z</time>
      </trkpt>
      <trkpt lat="46.5346" lon="5.92198">
        <ele>876.53</ele>
        <time>2021-09-21T10:24:52Z</time>
      </trkpt>
      <trkpt lat="46.53464" lon="5.9219">
        <ele>875.13</ele>
        <time>2021-09-21T10:25:04Z</time>
      </trkpt>
      <trkpt lat="46.53468" lon="5.92178">
        <ele>874.27</ele>
        <time>2021-09-21T10:25:15Z</time>
      </trkpt>
      <trkpt lat="46.53469" lon="5.92177">
        <ele>874.15</ele>
        <time>2021-09-21T10:25:16Z</time>
      </trkpt>
      <trkpt lat="46.53472" lon="5.92174">
        <ele>873.51</ele>
        <time>2021-09-21T10:25:20Z</time>
      </trkpt>
      <trkpt lat="46.53481" lon="5.9218">
        <ele>873.68</ele>
        <time>2021-09-21T10:25:30Z</time>
      </trkpt>
      <trkpt lat="46.53497" lon="5.9219">
        <ele>873.95</ele>
        <time>2021-09-21T10:25:44Z</time>
      </trkpt>
    </trkseg>
  </trk>
</gpx>